<?xml version="1.0" encoding="UTF-8" standalone="no" ?>
<gpx xmlns="http://www.topografix.com/GPX/1/1" xmlns:xsi="http://www.w3.org/2001/XMLSchema-instance" xsi:schemaLocation="http://www.topografix.com/GPX/1/1 http://www.topografix.com/GPX/1/1/gpx.xsd" version="1.1" creator="VisuGPX - https://www.visugpx.com">
  <metadata>
    <name>1er parcours du 14 octobre </name>
    <desc><![CDATA[bla bla bla bla bla bla]]></desc>
  </metadata>
  <trk>
    <name><![CDATA[1er parcours du 14 octobre _1]]></name>
    <trkseg>
      <trkpt lat="49.65262" lon="1.61577">
        <ele>171.6</ele>
        <time>2015-10-14T07:03:06Z</time>
      </trkpt>
      <trkpt lat="49.65262" lon="1.61577">
        <ele>211</ele>
        <time>2015-10-14T07:03:33Z</time>
      </trkpt>
      <trkpt lat="49.65241" lon="1.61553">
        <ele>208</ele>
        <time>2015-10-14T07:03:59Z</time>
      </trkpt>
      <trkpt lat="49.65241" lon="1.61553">
        <ele>208</ele>
        <time>2015-10-14T07:04:06Z</time>
      </trkpt>
      <trkpt lat="49.65237" lon="1.61557">
        <ele>216</ele>
        <time>2015-10-14T07:04:07Z</time>
      </trkpt>
      <trkpt lat="49.65225" lon="1.61529">
        <ele>224</ele>
        <time>2015-10-14T07:04:30Z</time>
      </trkpt>
      <trkpt lat="49.65215" lon="1.61509">
        <ele>221</ele>
        <time>2015-10-14T07:04:42Z</time>
      </trkpt>
      <trkpt lat="49.65207" lon="1.61488">
        <ele>222</ele>
        <time>2015-10-14T07:04:55Z</time>
      </trkpt>
      <trkpt lat="49.65199" lon="1.61467">
        <ele>221</ele>
        <time>2015-10-14T07:05:08Z</time>
      </trkpt>
      <trkpt lat="49.65192" lon="1.61448">
        <ele>221</ele>
        <time>2015-10-14T07:05:21Z</time>
      </trkpt>
      <trkpt lat="49.65183" lon="1.61431">
        <ele>218</ele>
        <time>2015-10-14T07:05:34Z</time>
      </trkpt>
      <trkpt lat="49.65181" lon="1.61428">
        <ele>219</ele>
        <time>2015-10-14T07:05:36Z</time>
      </trkpt>
      <trkpt lat="49.65183" lon="1.61431">
        <ele>218</ele>
        <time>2015-10-14T07:05:45Z</time>
      </trkpt>
      <trkpt lat="49.65177" lon="1.61407">
        <ele>229</ele>
        <time>2015-10-14T07:06:34Z</time>
      </trkpt>
      <trkpt lat="49.65169" lon="1.6139">
        <ele>228</ele>
        <time>2015-10-14T07:06:49Z</time>
      </trkpt>
      <trkpt lat="49.65158" lon="1.61373">
        <ele>228</ele>
        <time>2015-10-14T07:07:02Z</time>
      </trkpt>
      <trkpt lat="49.65147" lon="1.61358">
        <ele>223</ele>
        <time>2015-10-14T07:07:15Z</time>
      </trkpt>
      <trkpt lat="49.65144" lon="1.61351">
        <ele>223</ele>
        <time>2015-10-14T07:07:19Z</time>
      </trkpt>
      <trkpt lat="49.65137" lon="1.61341">
        <ele>217</ele>
        <time>2015-10-14T07:07:36Z</time>
      </trkpt>
      <trkpt lat="49.65119" lon="1.61304">
        <ele>233</ele>
        <time>2015-10-14T07:09:36Z</time>
      </trkpt>
      <trkpt lat="49.65119" lon="1.61304">
        <ele>233</ele>
        <time>2015-10-14T07:11:36Z</time>
      </trkpt>
      <trkpt lat="49.6511" lon="1.61261">
        <ele>214</ele>
        <time>2015-10-14T07:11:48Z</time>
      </trkpt>
      <trkpt lat="49.6511" lon="1.61261">
        <ele>214</ele>
        <time>2015-10-14T07:11:54Z</time>
      </trkpt>
      <trkpt lat="49.6511" lon="1.61261">
        <ele>214</ele>
        <time>2015-10-14T07:11:56Z</time>
      </trkpt>
      <trkpt lat="49.651" lon="1.61244">
        <ele>214</ele>
        <time>2015-10-14T07:12:12Z</time>
      </trkpt>
      <trkpt lat="49.65095" lon="1.61223">
        <ele>211</ele>
        <time>2015-10-14T07:12:24Z</time>
      </trkpt>
      <trkpt lat="49.65084" lon="1.61188">
        <ele>222</ele>
        <time>2015-10-14T07:12:42Z</time>
      </trkpt>
      <trkpt lat="49.65073" lon="1.61164">
        <ele>225</ele>
        <time>2015-10-14T07:12:59Z</time>
      </trkpt>
      <trkpt lat="49.65068" lon="1.6116">
        <ele>228</ele>
        <time>2015-10-14T07:13:04Z</time>
      </trkpt>
      <trkpt lat="49.65065" lon="1.61147">
        <ele>232</ele>
        <time>2015-10-14T07:13:16Z</time>
      </trkpt>
      <trkpt lat="49.65061" lon="1.61118">
        <ele>232</ele>
        <time>2015-10-14T07:13:29Z</time>
      </trkpt>
      <trkpt lat="49.65056" lon="1.61114">
        <ele>232</ele>
        <time>2015-10-14T07:13:39Z</time>
      </trkpt>
      <trkpt lat="49.65031" lon="1.61071">
        <ele>229</ele>
        <time>2015-10-14T07:17:06Z</time>
      </trkpt>
      <trkpt lat="49.65023" lon="1.61053">
        <ele>228</ele>
        <time>2015-10-14T07:17:19Z</time>
      </trkpt>
      <trkpt lat="49.65022" lon="1.61046">
        <ele>229</ele>
        <time>2015-10-14T07:17:23Z</time>
      </trkpt>
      <trkpt lat="49.65023" lon="1.61042">
        <ele>231</ele>
        <time>2015-10-14T07:17:31Z</time>
      </trkpt>
      <trkpt lat="49.65016" lon="1.61028">
        <ele>232</ele>
        <time>2015-10-14T07:18:28Z</time>
      </trkpt>
      <trkpt lat="49.65014" lon="1.61007">
        <ele>232</ele>
        <time>2015-10-14T07:18:41Z</time>
      </trkpt>
      <trkpt lat="49.65021" lon="1.60984">
        <ele>235</ele>
        <time>2015-10-14T07:18:58Z</time>
      </trkpt>
      <trkpt lat="49.65034" lon="1.60974">
        <ele>231</ele>
        <time>2015-10-14T07:19:11Z</time>
      </trkpt>
      <trkpt lat="49.65037" lon="1.60955">
        <ele>231</ele>
        <time>2015-10-14T07:19:23Z</time>
      </trkpt>
      <trkpt lat="49.6505" lon="1.60941">
        <ele>229</ele>
        <time>2015-10-14T07:19:36Z</time>
      </trkpt>
      <trkpt lat="49.6505" lon="1.60941">
        <ele>229</ele>
        <time>2015-10-14T07:19:43Z</time>
      </trkpt>
      <trkpt lat="49.65055" lon="1.60926">
        <ele>230</ele>
        <time>2015-10-14T07:19:47Z</time>
      </trkpt>
      <trkpt lat="49.65068" lon="1.60919">
        <ele>228</ele>
        <time>2015-10-14T07:19:57Z</time>
      </trkpt>
      <trkpt lat="49.65079" lon="1.60895">
        <ele>223</ele>
        <time>2015-10-14T07:20:11Z</time>
      </trkpt>
      <trkpt lat="49.6509" lon="1.60886">
        <ele>220</ele>
        <time>2015-10-14T07:20:25Z</time>
      </trkpt>
      <trkpt lat="49.6511" lon="1.60849">
        <ele>225</ele>
        <time>2015-10-14T07:20:45Z</time>
      </trkpt>
      <trkpt lat="49.65124" lon="1.60816">
        <ele>226</ele>
        <time>2015-10-14T07:21:06Z</time>
      </trkpt>
      <trkpt lat="49.65133" lon="1.60798">
        <ele>228</ele>
        <time>2015-10-14T07:21:19Z</time>
      </trkpt>
      <trkpt lat="49.6513" lon="1.60764">
        <ele>227</ele>
        <time>2015-10-14T07:21:33Z</time>
      </trkpt>
      <trkpt lat="49.65127" lon="1.60754">
        <ele>225</ele>
        <time>2015-10-14T07:21:34Z</time>
      </trkpt>
      <trkpt lat="49.65126" lon="1.60742">
        <ele>222</ele>
        <time>2015-10-14T07:21:44Z</time>
      </trkpt>
      <trkpt lat="49.65126" lon="1.60742">
        <ele>222</ele>
        <time>2015-10-14T07:21:52Z</time>
      </trkpt>
      <trkpt lat="49.65126" lon="1.60742">
        <ele>222</ele>
        <time>2015-10-14T07:21:53Z</time>
      </trkpt>
      <trkpt lat="49.65123" lon="1.60721">
        <ele>220</ele>
        <time>2015-10-14T07:22:04Z</time>
      </trkpt>
      <trkpt lat="49.65107" lon="1.60702">
        <ele>219</ele>
        <time>2015-10-14T07:22:17Z</time>
      </trkpt>
      <trkpt lat="49.65098" lon="1.60676">
        <ele>221</ele>
        <time>2015-10-14T07:22:32Z</time>
      </trkpt>
      <trkpt lat="49.65085" lon="1.60647">
        <ele>221</ele>
        <time>2015-10-14T07:22:48Z</time>
      </trkpt>
      <trkpt lat="49.65073" lon="1.6062">
        <ele>224</ele>
        <time>2015-10-14T07:23:04Z</time>
      </trkpt>
      <trkpt lat="49.65062" lon="1.60603">
        <ele>225</ele>
        <time>2015-10-14T07:23:17Z</time>
      </trkpt>
      <trkpt lat="49.65059" lon="1.60601">
        <ele>225</ele>
        <time>2015-10-14T07:23:19Z</time>
      </trkpt>
      <trkpt lat="49.65057" lon="1.60586">
        <ele>222</ele>
        <time>2015-10-14T07:23:29Z</time>
      </trkpt>
      <trkpt lat="49.65049" lon="1.60561">
        <ele>226</ele>
        <time>2015-10-14T07:23:43Z</time>
      </trkpt>
      <trkpt lat="49.65038" lon="1.60531">
        <ele>226</ele>
        <time>2015-10-14T07:24:02Z</time>
      </trkpt>
      <trkpt lat="49.65031" lon="1.60502">
        <ele>227</ele>
        <time>2015-10-14T07:24:20Z</time>
      </trkpt>
      <trkpt lat="49.65022" lon="1.60487">
        <ele>227</ele>
        <time>2015-10-14T07:24:32Z</time>
      </trkpt>
      <trkpt lat="49.65019" lon="1.60466">
        <ele>232</ele>
        <time>2015-10-14T07:24:43Z</time>
      </trkpt>
      <trkpt lat="49.65013" lon="1.60448">
        <ele>229</ele>
        <time>2015-10-14T07:24:54Z</time>
      </trkpt>
      <trkpt lat="49.65009" lon="1.60434">
        <ele>230</ele>
        <time>2015-10-14T07:25:02Z</time>
      </trkpt>
      <trkpt lat="49.65002" lon="1.60413">
        <ele>231</ele>
        <time>2015-10-14T07:25:16Z</time>
      </trkpt>
      <trkpt lat="49.64994" lon="1.60388">
        <ele>230</ele>
        <time>2015-10-14T07:25:33Z</time>
      </trkpt>
      <trkpt lat="49.64987" lon="1.60364">
        <ele>229</ele>
        <time>2015-10-14T07:25:46Z</time>
      </trkpt>
      <trkpt lat="49.64976" lon="1.6033">
        <ele>234</ele>
        <time>2015-10-14T07:26:05Z</time>
      </trkpt>
      <trkpt lat="49.6497" lon="1.60305">
        <ele>232</ele>
        <time>2015-10-14T07:26:16Z</time>
      </trkpt>
      <trkpt lat="49.64963" lon="1.60286">
        <ele>238</ele>
        <time>2015-10-14T07:26:32Z</time>
      </trkpt>
      <trkpt lat="49.64955" lon="1.60268">
        <ele>237</ele>
        <time>2015-10-14T07:26:47Z</time>
      </trkpt>
      <trkpt lat="49.64944" lon="1.60232">
        <ele>238</ele>
        <time>2015-10-14T07:27:05Z</time>
      </trkpt>
      <trkpt lat="49.6494" lon="1.60207">
        <ele>241</ele>
        <time>2015-10-14T07:27:16Z</time>
      </trkpt>
      <trkpt lat="49.64937" lon="1.60193">
        <ele>243</ele>
        <time>2015-10-14T07:27:23Z</time>
      </trkpt>
      <trkpt lat="49.64932" lon="1.60178">
        <ele>241</ele>
        <time>2015-10-14T07:27:33Z</time>
      </trkpt>
      <trkpt lat="49.64924" lon="1.60157">
        <ele>242</ele>
        <time>2015-10-14T07:27:45Z</time>
      </trkpt>
      <trkpt lat="49.64917" lon="1.6012">
        <ele>244</ele>
        <time>2015-10-14T07:28:03Z</time>
      </trkpt>
      <trkpt lat="49.64912" lon="1.60091">
        <ele>243</ele>
        <time>2015-10-14T07:28:18Z</time>
      </trkpt>
      <trkpt lat="49.64908" lon="1.6007">
        <ele>242</ele>
        <time>2015-10-14T07:28:30Z</time>
      </trkpt>
      <trkpt lat="49.64902" lon="1.60037">
        <ele>242</ele>
        <time>2015-10-14T07:28:48Z</time>
      </trkpt>
      <trkpt lat="49.64899" lon="1.60008">
        <ele>238</ele>
        <time>2015-10-14T07:29:05Z</time>
      </trkpt>
      <trkpt lat="49.64896" lon="1.59982">
        <ele>241</ele>
        <time>2015-10-14T07:29:18Z</time>
      </trkpt>
      <trkpt lat="49.64893" lon="1.5996">
        <ele>243</ele>
        <time>2015-10-14T07:29:30Z</time>
      </trkpt>
      <trkpt lat="49.64889" lon="1.59929">
        <ele>245</ele>
        <time>2015-10-14T07:29:44Z</time>
      </trkpt>
      <trkpt lat="49.64888" lon="1.59915">
        <ele>247</ele>
        <time>2015-10-14T07:29:51Z</time>
      </trkpt>
      <trkpt lat="49.64887" lon="1.59907">
        <ele>248</ele>
        <time>2015-10-14T07:29:55Z</time>
      </trkpt>
      <trkpt lat="49.64885" lon="1.59894">
        <ele>249</ele>
        <time>2015-10-14T07:30:04Z</time>
      </trkpt>
      <trkpt lat="49.64881" lon="1.5988">
        <ele>249</ele>
        <time>2015-10-14T07:30:13Z</time>
      </trkpt>
      <trkpt lat="49.64874" lon="1.59855">
        <ele>250</ele>
        <time>2015-10-14T07:30:26Z</time>
      </trkpt>
      <trkpt lat="49.64865" lon="1.59829">
        <ele>252</ele>
        <time>2015-10-14T07:30:41Z</time>
      </trkpt>
      <trkpt lat="49.64863" lon="1.59823">
        <ele>252</ele>
        <time>2015-10-14T07:30:53Z</time>
      </trkpt>
      <trkpt lat="49.64848" lon="1.59786">
        <ele>253</ele>
        <time>2015-10-14T07:31:12Z</time>
      </trkpt>
      <trkpt lat="49.64846" lon="1.59779">
        <ele>255</ele>
        <time>2015-10-14T07:31:16Z</time>
      </trkpt>
      <trkpt lat="49.64842" lon="1.59773">
        <ele>252</ele>
        <time>2015-10-14T07:31:24Z</time>
      </trkpt>
      <trkpt lat="49.64832" lon="1.59749">
        <ele>253</ele>
        <time>2015-10-14T07:31:36Z</time>
      </trkpt>
      <trkpt lat="49.6483" lon="1.5974">
        <ele>256</ele>
        <time>2015-10-14T07:31:40Z</time>
      </trkpt>
      <trkpt lat="49.64829" lon="1.59732">
        <ele>252</ele>
        <time>2015-10-14T07:32:00Z</time>
      </trkpt>
      <trkpt lat="49.64829" lon="1.59732">
        <ele>252</ele>
        <time>2015-10-14T07:38:44Z</time>
      </trkpt>
      <trkpt lat="49.64827" lon="1.59706">
        <ele>250</ele>
        <time>2015-10-14T07:43:26Z</time>
      </trkpt>
      <trkpt lat="49.64829" lon="1.59698">
        <ele>252</ele>
        <time>2015-10-14T07:43:29Z</time>
      </trkpt>
      <trkpt lat="49.64829" lon="1.59699">
        <ele>252</ele>
        <time>2015-10-14T07:43:37Z</time>
      </trkpt>
      <trkpt lat="49.64836" lon="1.59657">
        <ele>258</ele>
        <time>2015-10-14T07:44:17Z</time>
      </trkpt>
      <trkpt lat="49.64846" lon="1.5965">
        <ele>258</ele>
        <time>2015-10-14T07:44:21Z</time>
      </trkpt>
      <trkpt lat="49.64844" lon="1.59635">
        <ele>264</ele>
        <time>2015-10-14T07:44:33Z</time>
      </trkpt>
      <trkpt lat="49.64868" lon="1.59601">
        <ele>268</ele>
        <time>2015-10-14T07:44:50Z</time>
      </trkpt>
      <trkpt lat="49.64881" lon="1.59581">
        <ele>270</ele>
        <time>2015-10-14T07:45:05Z</time>
      </trkpt>
      <trkpt lat="49.64881" lon="1.59581">
        <ele>270</ele>
        <time>2015-10-14T07:45:10Z</time>
      </trkpt>
      <trkpt lat="49.64881" lon="1.59581">
        <ele>270</ele>
        <time>2015-10-14T07:45:12Z</time>
      </trkpt>
      <trkpt lat="49.64864" lon="1.5956">
        <ele>259</ele>
        <time>2015-10-14T07:45:26Z</time>
      </trkpt>
      <trkpt lat="49.64873" lon="1.59544">
        <ele>263</ele>
        <time>2015-10-14T07:45:36Z</time>
      </trkpt>
      <trkpt lat="49.64867" lon="1.59529">
        <ele>254</ele>
        <time>2015-10-14T07:45:49Z</time>
      </trkpt>
      <trkpt lat="49.64866" lon="1.59495">
        <ele>259</ele>
        <time>2015-10-14T07:46:04Z</time>
      </trkpt>
      <trkpt lat="49.64866" lon="1.59489">
        <ele>258</ele>
        <time>2015-10-14T07:46:07Z</time>
      </trkpt>
      <trkpt lat="49.64862" lon="1.59478">
        <ele>254</ele>
        <time>2015-10-14T07:46:19Z</time>
      </trkpt>
      <trkpt lat="49.64856" lon="1.59463">
        <ele>253</ele>
        <time>2015-10-14T07:46:28Z</time>
      </trkpt>
      <trkpt lat="49.64847" lon="1.59443">
        <ele>253</ele>
        <time>2015-10-14T07:46:42Z</time>
      </trkpt>
      <trkpt lat="49.64831" lon="1.59421">
        <ele>253</ele>
        <time>2015-10-14T07:47:01Z</time>
      </trkpt>
      <trkpt lat="49.6482" lon="1.59401">
        <ele>250</ele>
        <time>2015-10-14T07:47:17Z</time>
      </trkpt>
      <trkpt lat="49.6481" lon="1.5937">
        <ele>254</ele>
        <time>2015-10-14T07:47:34Z</time>
      </trkpt>
      <trkpt lat="49.64799" lon="1.59351">
        <ele>256</ele>
        <time>2015-10-14T07:47:46Z</time>
      </trkpt>
      <trkpt lat="49.64787" lon="1.59336">
        <ele>256</ele>
        <time>2015-10-14T07:47:59Z</time>
      </trkpt>
      <trkpt lat="49.64775" lon="1.59314">
        <ele>256</ele>
        <time>2015-10-14T07:48:13Z</time>
      </trkpt>
      <trkpt lat="49.64768" lon="1.59302">
        <ele>256</ele>
        <time>2015-10-14T07:48:25Z</time>
      </trkpt>
      <trkpt lat="49.64762" lon="1.59289">
        <ele>256</ele>
        <time>2015-10-14T07:48:35Z</time>
      </trkpt>
      <trkpt lat="49.64748" lon="1.59266">
        <ele>259</ele>
        <time>2015-10-14T07:48:49Z</time>
      </trkpt>
      <trkpt lat="49.64739" lon="1.59246">
        <ele>256</ele>
        <time>2015-10-14T07:49:04Z</time>
      </trkpt>
      <trkpt lat="49.64721" lon="1.59226">
        <ele>250</ele>
        <time>2015-10-14T07:49:21Z</time>
      </trkpt>
      <trkpt lat="49.64714" lon="1.5921">
        <ele>255</ele>
        <time>2015-10-14T07:49:36Z</time>
      </trkpt>
      <trkpt lat="49.64708" lon="1.59192">
        <ele>258</ele>
        <time>2015-10-14T07:49:47Z</time>
      </trkpt>
      <trkpt lat="49.64695" lon="1.59167">
        <ele>259</ele>
        <time>2015-10-14T07:50:03Z</time>
      </trkpt>
      <trkpt lat="49.64684" lon="1.59153">
        <ele>257</ele>
        <time>2015-10-14T07:50:17Z</time>
      </trkpt>
      <trkpt lat="49.64671" lon="1.59137">
        <ele>255</ele>
        <time>2015-10-14T07:50:34Z</time>
      </trkpt>
      <trkpt lat="49.64657" lon="1.59114">
        <ele>257</ele>
        <time>2015-10-14T07:50:47Z</time>
      </trkpt>
      <trkpt lat="49.64647" lon="1.59099">
        <ele>257</ele>
        <time>2015-10-14T07:50:56Z</time>
      </trkpt>
      <trkpt lat="49.64639" lon="1.59093">
        <ele>253</ele>
        <time>2015-10-14T07:51:09Z</time>
      </trkpt>
      <trkpt lat="49.64622" lon="1.59081">
        <ele>247</ele>
        <time>2015-10-14T07:51:28Z</time>
      </trkpt>
      <trkpt lat="49.64604" lon="1.59067">
        <ele>246</ele>
        <time>2015-10-14T07:51:44Z</time>
      </trkpt>
      <trkpt lat="49.64595" lon="1.59058">
        <ele>245</ele>
        <time>2015-10-14T07:51:51Z</time>
      </trkpt>
      <trkpt lat="49.64583" lon="1.59058">
        <ele>238</ele>
        <time>2015-10-14T07:52:03Z</time>
      </trkpt>
      <trkpt lat="49.64567" lon="1.59048">
        <ele>242</ele>
        <time>2015-10-14T07:52:14Z</time>
      </trkpt>
      <trkpt lat="49.64558" lon="1.59045">
        <ele>239</ele>
        <time>2015-10-14T07:52:23Z</time>
      </trkpt>
      <trkpt lat="49.64545" lon="1.59034">
        <ele>238</ele>
        <time>2015-10-14T07:52:36Z</time>
      </trkpt>
      <trkpt lat="49.64531" lon="1.59015">
        <ele>238</ele>
        <time>2015-10-14T07:52:51Z</time>
      </trkpt>
      <trkpt lat="49.64521" lon="1.58996">
        <ele>233</ele>
        <time>2015-10-14T07:53:07Z</time>
      </trkpt>
      <trkpt lat="49.64509" lon="1.58971">
        <ele>248</ele>
        <time>2015-10-14T07:53:16Z</time>
      </trkpt>
      <trkpt lat="49.64492" lon="1.58951">
        <ele>253</ele>
        <time>2015-10-14T07:53:34Z</time>
      </trkpt>
      <trkpt lat="49.64485" lon="1.58936">
        <ele>250</ele>
        <time>2015-10-14T07:53:46Z</time>
      </trkpt>
      <trkpt lat="49.64479" lon="1.58936">
        <ele>254</ele>
        <time>2015-10-14T07:53:52Z</time>
      </trkpt>
      <trkpt lat="49.64479" lon="1.58935">
        <ele>255</ele>
        <time>2015-10-14T07:54:01Z</time>
      </trkpt>
      <trkpt lat="49.64463" lon="1.58892">
        <ele>244</ele>
        <time>2015-10-14T07:56:05Z</time>
      </trkpt>
      <trkpt lat="49.64452" lon="1.58879">
        <ele>247</ele>
        <time>2015-10-14T07:56:18Z</time>
      </trkpt>
      <trkpt lat="49.64435" lon="1.58858">
        <ele>246</ele>
        <time>2015-10-14T07:56:37Z</time>
      </trkpt>
      <trkpt lat="49.64427" lon="1.58846">
        <ele>247</ele>
        <time>2015-10-14T07:56:45Z</time>
      </trkpt>
      <trkpt lat="49.64427" lon="1.58846">
        <ele>247</ele>
        <time>2015-10-14T07:56:51Z</time>
      </trkpt>
      <trkpt lat="49.64427" lon="1.58846">
        <ele>247</ele>
        <time>2015-10-14T07:56:52Z</time>
      </trkpt>
      <trkpt lat="49.64409" lon="1.58822">
        <ele>242</ele>
        <time>2015-10-14T07:57:05Z</time>
      </trkpt>
      <trkpt lat="49.64396" lon="1.58812">
        <ele>238</ele>
        <time>2015-10-14T07:57:20Z</time>
      </trkpt>
      <trkpt lat="49.64384" lon="1.58781">
        <ele>235</ele>
        <time>2015-10-14T07:57:37Z</time>
      </trkpt>
      <trkpt lat="49.64377" lon="1.58759">
        <ele>235</ele>
        <time>2015-10-14T07:57:49Z</time>
      </trkpt>
      <trkpt lat="49.64368" lon="1.58727">
        <ele>237</ele>
        <time>2015-10-14T07:58:05Z</time>
      </trkpt>
      <trkpt lat="49.64367" lon="1.58702">
        <ele>240</ele>
        <time>2015-10-14T07:58:19Z</time>
      </trkpt>
      <trkpt lat="49.64367" lon="1.58666">
        <ele>238</ele>
        <time>2015-10-14T07:58:34Z</time>
      </trkpt>
      <trkpt lat="49.64372" lon="1.58646">
        <ele>236</ele>
        <time>2015-10-14T07:58:45Z</time>
      </trkpt>
      <trkpt lat="49.64379" lon="1.58627">
        <ele>230</ele>
        <time>2015-10-14T07:58:56Z</time>
      </trkpt>
      <trkpt lat="49.64389" lon="1.586">
        <ele>231</ele>
        <time>2015-10-14T07:59:17Z</time>
      </trkpt>
      <trkpt lat="49.64396" lon="1.58584">
        <ele>232</ele>
        <time>2015-10-14T07:59:26Z</time>
      </trkpt>
      <trkpt lat="49.64405" lon="1.58567">
        <ele>232</ele>
        <time>2015-10-14T07:59:37Z</time>
      </trkpt>
      <trkpt lat="49.64414" lon="1.58554">
        <ele>234</ele>
        <time>2015-10-14T07:59:45Z</time>
      </trkpt>
      <trkpt lat="49.64424" lon="1.58547">
        <ele>237</ele>
        <time>2015-10-14T07:59:55Z</time>
      </trkpt>
      <trkpt lat="49.64433" lon="1.58537">
        <ele>237</ele>
        <time>2015-10-14T08:00:05Z</time>
      </trkpt>
      <trkpt lat="49.64454" lon="1.5852">
        <ele>234</ele>
        <time>2015-10-14T08:00:22Z</time>
      </trkpt>
      <trkpt lat="49.64466" lon="1.58513">
        <ele>235</ele>
        <time>2015-10-14T08:00:33Z</time>
      </trkpt>
      <trkpt lat="49.64477" lon="1.58503">
        <ele>234</ele>
        <time>2015-10-14T08:00:45Z</time>
      </trkpt>
      <trkpt lat="49.6449" lon="1.58476">
        <ele>229</ele>
        <time>2015-10-14T08:01:01Z</time>
      </trkpt>
      <trkpt lat="49.64497" lon="1.58456">
        <ele>227</ele>
        <time>2015-10-14T08:01:13Z</time>
      </trkpt>
      <trkpt lat="49.64496" lon="1.58435">
        <ele>226</ele>
        <time>2015-10-14T08:01:24Z</time>
      </trkpt>
      <trkpt lat="49.64496" lon="1.58435">
        <ele>226</ele>
        <time>2015-10-14T08:01:31Z</time>
      </trkpt>
      <trkpt lat="49.64492" lon="1.58421">
        <ele>224</ele>
        <time>2015-10-14T08:01:37Z</time>
      </trkpt>
      <trkpt lat="49.64477" lon="1.58393">
        <ele>227</ele>
        <time>2015-10-14T08:01:55Z</time>
      </trkpt>
      <trkpt lat="49.64458" lon="1.58377">
        <ele>227</ele>
        <time>2015-10-14T08:02:11Z</time>
      </trkpt>
      <trkpt lat="49.64446" lon="1.58375">
        <ele>226</ele>
        <time>2015-10-14T08:02:22Z</time>
      </trkpt>
      <trkpt lat="49.64429" lon="1.58366">
        <ele>227</ele>
        <time>2015-10-14T08:02:36Z</time>
      </trkpt>
      <trkpt lat="49.64413" lon="1.58354">
        <ele>220</ele>
        <time>2015-10-14T08:02:51Z</time>
      </trkpt>
      <trkpt lat="49.64389" lon="1.58347">
        <ele>223</ele>
        <time>2015-10-14T08:03:10Z</time>
      </trkpt>
      <trkpt lat="49.64371" lon="1.58338">
        <ele>224</ele>
        <time>2015-10-14T08:03:25Z</time>
      </trkpt>
      <trkpt lat="49.64359" lon="1.58333">
        <ele>224</ele>
        <time>2015-10-14T08:03:35Z</time>
      </trkpt>
      <trkpt lat="49.64348" lon="1.58326">
        <ele>223</ele>
        <time>2015-10-14T08:03:45Z</time>
      </trkpt>
      <trkpt lat="49.64326" lon="1.58318">
        <ele>216</ele>
        <time>2015-10-14T08:04:03Z</time>
      </trkpt>
      <trkpt lat="49.64311" lon="1.58309">
        <ele>215</ele>
        <time>2015-10-14T08:04:17Z</time>
      </trkpt>
      <trkpt lat="49.64303" lon="1.58295">
        <ele>215</ele>
        <time>2015-10-14T08:04:33Z</time>
      </trkpt>
      <trkpt lat="49.64297" lon="1.58293">
        <ele>218</ele>
        <time>2015-10-14T08:04:41Z</time>
      </trkpt>
      <trkpt lat="49.64279" lon="1.58258">
        <ele>224</ele>
        <time>2015-10-14T08:05:39Z</time>
      </trkpt>
      <trkpt lat="49.64276" lon="1.5823">
        <ele>219</ele>
        <time>2015-10-14T08:05:55Z</time>
      </trkpt>
      <trkpt lat="49.64275" lon="1.58227">
        <ele>218</ele>
        <time>2015-10-14T08:05:57Z</time>
      </trkpt>
      <trkpt lat="49.64276" lon="1.5823">
        <ele>219</ele>
        <time>2015-10-14T08:06:03Z</time>
      </trkpt>
      <trkpt lat="49.64275" lon="1.58211">
        <ele>223</ele>
        <time>2015-10-14T08:06:16Z</time>
      </trkpt>
      <trkpt lat="49.64283" lon="1.58184">
        <ele>217</ele>
        <time>2015-10-14T08:06:35Z</time>
      </trkpt>
      <trkpt lat="49.64297" lon="1.5817">
        <ele>210</ele>
        <time>2015-10-14T08:06:44Z</time>
      </trkpt>
      <trkpt lat="49.64289" lon="1.58155">
        <ele>220</ele>
        <time>2015-10-14T08:06:59Z</time>
      </trkpt>
      <trkpt lat="49.64309" lon="1.58112">
        <ele>217</ele>
        <time>2015-10-14T08:07:15Z</time>
      </trkpt>
      <trkpt lat="49.64309" lon="1.58112">
        <ele>217</ele>
        <time>2015-10-14T08:07:20Z</time>
      </trkpt>
      <trkpt lat="49.64309" lon="1.58112">
        <ele>217</ele>
        <time>2015-10-14T08:07:21Z</time>
      </trkpt>
      <trkpt lat="49.64316" lon="1.58084">
        <ele>221</ele>
        <time>2015-10-14T08:07:35Z</time>
      </trkpt>
      <trkpt lat="49.64326" lon="1.58061">
        <ele>219</ele>
        <time>2015-10-14T08:07:49Z</time>
      </trkpt>
      <trkpt lat="49.64328" lon="1.58041">
        <ele>228</ele>
        <time>2015-10-14T08:08:00Z</time>
      </trkpt>
      <trkpt lat="49.64318" lon="1.58004">
        <ele>229</ele>
        <time>2015-10-14T08:08:20Z</time>
      </trkpt>
      <trkpt lat="49.64313" lon="1.57977">
        <ele>233</ele>
        <time>2015-10-14T08:08:35Z</time>
      </trkpt>
      <trkpt lat="49.64314" lon="1.5795">
        <ele>227</ele>
        <time>2015-10-14T08:08:53Z</time>
      </trkpt>
      <trkpt lat="49.64308" lon="1.5792">
        <ele>229</ele>
        <time>2015-10-14T08:09:10Z</time>
      </trkpt>
      <trkpt lat="49.64303" lon="1.57905">
        <ele>228</ele>
        <time>2015-10-14T08:09:20Z</time>
      </trkpt>
      <trkpt lat="49.64297" lon="1.57889">
        <ele>231</ele>
        <time>2015-10-14T08:09:29Z</time>
      </trkpt>
      <trkpt lat="49.64291" lon="1.57862">
        <ele>231</ele>
        <time>2015-10-14T08:09:42Z</time>
      </trkpt>
      <trkpt lat="49.64287" lon="1.57844">
        <ele>229</ele>
        <time>2015-10-14T08:09:52Z</time>
      </trkpt>
      <trkpt lat="49.64277" lon="1.57826">
        <ele>232</ele>
        <time>2015-10-14T08:10:04Z</time>
      </trkpt>
      <trkpt lat="49.64259" lon="1.57817">
        <ele>234</ele>
        <time>2015-10-14T08:10:20Z</time>
      </trkpt>
      <trkpt lat="49.64246" lon="1.57829">
        <ele>235</ele>
        <time>2015-10-14T08:10:30Z</time>
      </trkpt>
      <trkpt lat="49.64233" lon="1.57821">
        <ele>234</ele>
        <time>2015-10-14T08:10:37Z</time>
      </trkpt>
      <trkpt lat="49.64225" lon="1.57822">
        <ele>235</ele>
        <time>2015-10-14T08:10:47Z</time>
      </trkpt>
      <trkpt lat="49.6422" lon="1.57824">
        <ele>237</ele>
        <time>2015-10-14T08:10:51Z</time>
      </trkpt>
      <trkpt lat="49.64211" lon="1.57819">
        <ele>235</ele>
        <time>2015-10-14T08:11:01Z</time>
      </trkpt>
      <trkpt lat="49.64202" lon="1.57799">
        <ele>233</ele>
        <time>2015-10-14T08:11:12Z</time>
      </trkpt>
      <trkpt lat="49.64186" lon="1.57819">
        <ele>237</ele>
        <time>2015-10-14T08:11:22Z</time>
      </trkpt>
      <trkpt lat="49.64176" lon="1.57816">
        <ele>238</ele>
        <time>2015-10-14T08:11:31Z</time>
      </trkpt>
      <trkpt lat="49.64159" lon="1.57793">
        <ele>238</ele>
        <time>2015-10-14T08:11:48Z</time>
      </trkpt>
      <trkpt lat="49.64153" lon="1.57774">
        <ele>239</ele>
        <time>2015-10-14T08:11:59Z</time>
      </trkpt>
      <trkpt lat="49.64138" lon="1.57751">
        <ele>243</ele>
        <time>2015-10-14T08:12:16Z</time>
      </trkpt>
      <trkpt lat="49.64123" lon="1.57737">
        <ele>248</ele>
        <time>2015-10-14T08:12:29Z</time>
      </trkpt>
      <trkpt lat="49.64126" lon="1.57715">
        <ele>245</ele>
        <time>2015-10-14T08:12:41Z</time>
      </trkpt>
      <trkpt lat="49.64136" lon="1.57704">
        <ele>242</ele>
        <time>2015-10-14T08:12:51Z</time>
      </trkpt>
      <trkpt lat="49.64146" lon="1.57686">
        <ele>246</ele>
        <time>2015-10-14T08:13:07Z</time>
      </trkpt>
      <trkpt lat="49.64163" lon="1.57673">
        <ele>239</ele>
        <time>2015-10-14T08:13:20Z</time>
      </trkpt>
      <trkpt lat="49.64178" lon="1.57652">
        <ele>243</ele>
        <time>2015-10-14T08:13:35Z</time>
      </trkpt>
      <trkpt lat="49.64193" lon="1.57645">
        <ele>241</ele>
        <time>2015-10-14T08:13:47Z</time>
      </trkpt>
      <trkpt lat="49.64206" lon="1.57633">
        <ele>238</ele>
        <time>2015-10-14T08:13:59Z</time>
      </trkpt>
      <trkpt lat="49.64222" lon="1.57625">
        <ele>241</ele>
        <time>2015-10-14T08:14:14Z</time>
      </trkpt>
      <trkpt lat="49.64242" lon="1.57611">
        <ele>238</ele>
        <time>2015-10-14T08:14:30Z</time>
      </trkpt>
      <trkpt lat="49.64257" lon="1.57605">
        <ele>238</ele>
        <time>2015-10-14T08:14:42Z</time>
      </trkpt>
      <trkpt lat="49.64272" lon="1.57594">
        <ele>239</ele>
        <time>2015-10-14T08:14:56Z</time>
      </trkpt>
      <trkpt lat="49.64287" lon="1.57578">
        <ele>244</ele>
        <time>2015-10-14T08:15:10Z</time>
      </trkpt>
      <trkpt lat="49.64293" lon="1.57573">
        <ele>244</ele>
        <time>2015-10-14T08:15:15Z</time>
      </trkpt>
      <trkpt lat="49.64293" lon="1.57577">
        <ele>246</ele>
        <time>2015-10-14T08:15:23Z</time>
      </trkpt>
      <trkpt lat="49.64321" lon="1.57558">
        <ele>238</ele>
        <time>2015-10-14T08:17:39Z</time>
      </trkpt>
      <trkpt lat="49.64325" lon="1.57556">
        <ele>240</ele>
        <time>2015-10-14T08:17:45Z</time>
      </trkpt>
      <trkpt lat="49.64329" lon="1.57545">
        <ele>243</ele>
        <time>2015-10-14T08:18:00Z</time>
      </trkpt>
      <trkpt lat="49.64352" lon="1.57513">
        <ele>251</ele>
        <time>2015-10-14T08:19:21Z</time>
      </trkpt>
      <trkpt lat="49.64365" lon="1.57497">
        <ele>248</ele>
        <time>2015-10-14T08:19:38Z</time>
      </trkpt>
      <trkpt lat="49.64382" lon="1.57477">
        <ele>238</ele>
        <time>2015-10-14T08:19:53Z</time>
      </trkpt>
      <trkpt lat="49.64386" lon="1.57464">
        <ele>241</ele>
        <time>2015-10-14T08:20:04Z</time>
      </trkpt>
      <trkpt lat="49.64397" lon="1.57445">
        <ele>239</ele>
        <time>2015-10-14T08:20:20Z</time>
      </trkpt>
      <trkpt lat="49.64409" lon="1.57414">
        <ele>243</ele>
        <time>2015-10-14T08:20:36Z</time>
      </trkpt>
      <trkpt lat="49.64411" lon="1.57408">
        <ele>242</ele>
        <time>2015-10-14T08:20:40Z</time>
      </trkpt>
      <trkpt lat="49.64414" lon="1.57407">
        <ele>241</ele>
        <time>2015-10-14T08:20:48Z</time>
      </trkpt>
      <trkpt lat="49.64421" lon="1.57387">
        <ele>243</ele>
        <time>2015-10-14T08:21:32Z</time>
      </trkpt>
      <trkpt lat="49.64427" lon="1.57369">
        <ele>243</ele>
        <time>2015-10-14T08:21:46Z</time>
      </trkpt>
      <trkpt lat="49.64436" lon="1.57348">
        <ele>244</ele>
        <time>2015-10-14T08:21:59Z</time>
      </trkpt>
      <trkpt lat="49.6444" lon="1.57329">
        <ele>247</ele>
        <time>2015-10-14T08:22:08Z</time>
      </trkpt>
      <trkpt lat="49.64452" lon="1.57301">
        <ele>247</ele>
        <time>2015-10-14T08:22:26Z</time>
      </trkpt>
      <trkpt lat="49.64466" lon="1.57273">
        <ele>247</ele>
        <time>2015-10-14T08:22:45Z</time>
      </trkpt>
      <trkpt lat="49.64476" lon="1.57262">
        <ele>243</ele>
        <time>2015-10-14T08:22:53Z</time>
      </trkpt>
      <trkpt lat="49.64487" lon="1.57232">
        <ele>245</ele>
        <time>2015-10-14T08:23:12Z</time>
      </trkpt>
      <trkpt lat="49.645" lon="1.57206">
        <ele>248</ele>
        <time>2015-10-14T08:23:28Z</time>
      </trkpt>
      <trkpt lat="49.64513" lon="1.57199">
        <ele>244</ele>
        <time>2015-10-14T08:23:38Z</time>
      </trkpt>
      <trkpt lat="49.64526" lon="1.5719">
        <ele>244</ele>
        <time>2015-10-14T08:23:51Z</time>
      </trkpt>
      <trkpt lat="49.6455" lon="1.57188">
        <ele>239</ele>
        <time>2015-10-14T08:24:10Z</time>
      </trkpt>
      <trkpt lat="49.64564" lon="1.57178">
        <ele>240</ele>
        <time>2015-10-14T08:24:23Z</time>
      </trkpt>
      <trkpt lat="49.64585" lon="1.57176">
        <ele>242</ele>
        <time>2015-10-14T08:24:41Z</time>
      </trkpt>
      <trkpt lat="49.64604" lon="1.57181">
        <ele>245</ele>
        <time>2015-10-14T08:24:59Z</time>
      </trkpt>
      <trkpt lat="49.64619" lon="1.57184">
        <ele>236</ele>
        <time>2015-10-14T08:25:16Z</time>
      </trkpt>
      <trkpt lat="49.64631" lon="1.57186">
        <ele>239</ele>
        <time>2015-10-14T08:25:27Z</time>
      </trkpt>
      <trkpt lat="49.64659" lon="1.57177">
        <ele>236</ele>
        <time>2015-10-14T08:25:44Z</time>
      </trkpt>
      <trkpt lat="49.64688" lon="1.57172">
        <ele>237</ele>
        <time>2015-10-14T08:26:03Z</time>
      </trkpt>
      <trkpt lat="49.64687" lon="1.57147">
        <ele>243</ele>
        <time>2015-10-14T08:26:19Z</time>
      </trkpt>
      <trkpt lat="49.64709" lon="1.57115">
        <ele>243</ele>
        <time>2015-10-14T08:26:39Z</time>
      </trkpt>
      <trkpt lat="49.64721" lon="1.57092">
        <ele>248</ele>
        <time>2015-10-14T08:26:52Z</time>
      </trkpt>
      <trkpt lat="49.64729" lon="1.57074">
        <ele>250</ele>
        <time>2015-10-14T08:27:00Z</time>
      </trkpt>
      <trkpt lat="49.64733" lon="1.57061">
        <ele>248</ele>
        <time>2015-10-14T08:27:09Z</time>
      </trkpt>
      <trkpt lat="49.64742" lon="1.57045">
        <ele>248</ele>
        <time>2015-10-14T08:27:24Z</time>
      </trkpt>
      <trkpt lat="49.64759" lon="1.57027">
        <ele>242</ele>
        <time>2015-10-14T08:27:40Z</time>
      </trkpt>
      <trkpt lat="49.64767" lon="1.57016">
        <ele>245</ele>
        <time>2015-10-14T08:27:48Z</time>
      </trkpt>
      <trkpt lat="49.64775" lon="1.5701">
        <ele>246</ele>
        <time>2015-10-14T08:27:59Z</time>
      </trkpt>
      <trkpt lat="49.64796" lon="1.57002">
        <ele>244</ele>
        <time>2015-10-14T08:28:13Z</time>
      </trkpt>
      <trkpt lat="49.64815" lon="1.56994">
        <ele>248</ele>
        <time>2015-10-14T08:28:27Z</time>
      </trkpt>
      <trkpt lat="49.64832" lon="1.56984">
        <ele>249</ele>
        <time>2015-10-14T08:28:39Z</time>
      </trkpt>
      <trkpt lat="49.64845" lon="1.56975">
        <ele>249</ele>
        <time>2015-10-14T08:28:51Z</time>
      </trkpt>
      <trkpt lat="49.6486" lon="1.56967">
        <ele>253</ele>
        <time>2015-10-14T08:29:07Z</time>
      </trkpt>
      <trkpt lat="49.6486" lon="1.56967">
        <ele>253</ele>
        <time>2015-10-14T08:29:12Z</time>
      </trkpt>
      <trkpt lat="49.6486" lon="1.56967">
        <ele>253</ele>
        <time>2015-10-14T08:29:14Z</time>
      </trkpt>
      <trkpt lat="49.64878" lon="1.56964">
        <ele>243</ele>
        <time>2015-10-14T08:29:46Z</time>
      </trkpt>
      <trkpt lat="49.64892" lon="1.56965">
        <ele>242</ele>
        <time>2015-10-14T08:29:56Z</time>
      </trkpt>
      <trkpt lat="49.64892" lon="1.56965">
        <ele>242</ele>
        <time>2015-10-14T08:30:03Z</time>
      </trkpt>
      <trkpt lat="49.64892" lon="1.56965">
        <ele>242</ele>
        <time>2015-10-14T08:30:04Z</time>
      </trkpt>
      <trkpt lat="49.64904" lon="1.56944">
        <ele>252</ele>
        <time>2015-10-14T08:30:12Z</time>
      </trkpt>
      <trkpt lat="49.64915" lon="1.56939">
        <ele>252</ele>
        <time>2015-10-14T08:30:18Z</time>
      </trkpt>
      <trkpt lat="49.64929" lon="1.56935">
        <ele>255</ele>
        <time>2015-10-14T08:30:31Z</time>
      </trkpt>
      <trkpt lat="49.64938" lon="1.56919">
        <ele>259</ele>
        <time>2015-10-14T08:30:43Z</time>
      </trkpt>
      <trkpt lat="49.64952" lon="1.56922">
        <ele>256</ele>
        <time>2015-10-14T08:30:50Z</time>
      </trkpt>
      <trkpt lat="49.64961" lon="1.56909">
        <ele>259</ele>
        <time>2015-10-14T08:31:02Z</time>
      </trkpt>
      <trkpt lat="49.64988" lon="1.56892">
        <ele>260</ele>
        <time>2015-10-14T08:31:23Z</time>
      </trkpt>
      <trkpt lat="49.64986" lon="1.5688">
        <ele>259</ele>
        <time>2015-10-14T08:31:27Z</time>
      </trkpt>
      <trkpt lat="49.65004" lon="1.5687">
        <ele>258</ele>
        <time>2015-10-14T08:31:37Z</time>
      </trkpt>
      <trkpt lat="49.65003" lon="1.56857">
        <ele>260</ele>
        <time>2015-10-14T08:31:43Z</time>
      </trkpt>
      <trkpt lat="49.65003" lon="1.56857">
        <ele>260</ele>
        <time>2015-10-14T08:31:50Z</time>
      </trkpt>
      <trkpt lat="49.65003" lon="1.56857">
        <ele>260</ele>
        <time>2015-10-14T08:31:51Z</time>
      </trkpt>
      <trkpt lat="49.65028" lon="1.56842">
        <ele>260</ele>
        <time>2015-10-14T08:32:03Z</time>
      </trkpt>
      <trkpt lat="49.6504" lon="1.56838">
        <ele>258</ele>
        <time>2015-10-14T08:32:12Z</time>
      </trkpt>
      <trkpt lat="49.65054" lon="1.56833">
        <ele>258</ele>
        <time>2015-10-14T08:32:24Z</time>
      </trkpt>
      <trkpt lat="49.65067" lon="1.56819">
        <ele>259</ele>
        <time>2015-10-14T08:32:40Z</time>
      </trkpt>
      <trkpt lat="49.65073" lon="1.56802">
        <ele>262</ele>
        <time>2015-10-14T08:32:50Z</time>
      </trkpt>
      <trkpt lat="49.65087" lon="1.56785">
        <ele>261</ele>
        <time>2015-10-14T08:33:03Z</time>
      </trkpt>
      <trkpt lat="49.65097" lon="1.5677">
        <ele>265</ele>
        <time>2015-10-14T08:33:14Z</time>
      </trkpt>
      <trkpt lat="49.6511" lon="1.56753">
        <ele>265</ele>
        <time>2015-10-14T08:33:27Z</time>
      </trkpt>
      <trkpt lat="49.65119" lon="1.56742">
        <ele>262</ele>
        <time>2015-10-14T08:33:37Z</time>
      </trkpt>
      <trkpt lat="49.65136" lon="1.56712">
        <ele>254</ele>
        <time>2015-10-14T08:33:54Z</time>
      </trkpt>
      <trkpt lat="49.65143" lon="1.56687">
        <ele>261</ele>
        <time>2015-10-14T08:34:08Z</time>
      </trkpt>
      <trkpt lat="49.65151" lon="1.56668">
        <ele>265</ele>
        <time>2015-10-14T08:34:19Z</time>
      </trkpt>
      <trkpt lat="49.65163" lon="1.56647">
        <ele>266</ele>
        <time>2015-10-14T08:34:34Z</time>
      </trkpt>
      <trkpt lat="49.65171" lon="1.56631">
        <ele>262</ele>
        <time>2015-10-14T08:34:43Z</time>
      </trkpt>
      <trkpt lat="49.65182" lon="1.56614">
        <ele>261</ele>
        <time>2015-10-14T08:34:54Z</time>
      </trkpt>
      <trkpt lat="49.65192" lon="1.56592">
        <ele>256</ele>
        <time>2015-10-14T08:35:07Z</time>
      </trkpt>
      <trkpt lat="49.65201" lon="1.56563">
        <ele>257</ele>
        <time>2015-10-14T08:35:22Z</time>
      </trkpt>
      <trkpt lat="49.65208" lon="1.56542">
        <ele>262</ele>
        <time>2015-10-14T08:35:36Z</time>
      </trkpt>
      <trkpt lat="49.65215" lon="1.56516">
        <ele>257</ele>
        <time>2015-10-14T08:35:53Z</time>
      </trkpt>
      <trkpt lat="49.65226" lon="1.56491">
        <ele>256</ele>
        <time>2015-10-14T08:36:09Z</time>
      </trkpt>
      <trkpt lat="49.65225" lon="1.56485">
        <ele>255</ele>
        <time>2015-10-14T08:36:12Z</time>
      </trkpt>
      <trkpt lat="49.65223" lon="1.56481">
        <ele>258</ele>
        <time>2015-10-14T08:36:26Z</time>
      </trkpt>
      <trkpt lat="49.65237" lon="1.56442">
        <ele>255</ele>
        <time>2015-10-14T08:36:58Z</time>
      </trkpt>
      <trkpt lat="49.65245" lon="1.56432">
        <ele>252</ele>
        <time>2015-10-14T08:37:07Z</time>
      </trkpt>
      <trkpt lat="49.65257" lon="1.56406">
        <ele>255</ele>
        <time>2015-10-14T08:37:24Z</time>
      </trkpt>
      <trkpt lat="49.65266" lon="1.56393">
        <ele>256</ele>
        <time>2015-10-14T08:37:35Z</time>
      </trkpt>
      <trkpt lat="49.65285" lon="1.56371">
        <ele>250</ele>
        <time>2015-10-14T08:37:51Z</time>
      </trkpt>
      <trkpt lat="49.65295" lon="1.56342">
        <ele>247</ele>
        <time>2015-10-14T08:38:05Z</time>
      </trkpt>
      <trkpt lat="49.65309" lon="1.56319">
        <ele>254</ele>
        <time>2015-10-14T08:38:21Z</time>
      </trkpt>
      <trkpt lat="49.65316" lon="1.5629">
        <ele>259</ele>
        <time>2015-10-14T08:38:36Z</time>
      </trkpt>
      <trkpt lat="49.65329" lon="1.56263">
        <ele>259</ele>
        <time>2015-10-14T08:38:53Z</time>
      </trkpt>
      <trkpt lat="49.65338" lon="1.56248">
        <ele>258</ele>
        <time>2015-10-14T08:39:05Z</time>
      </trkpt>
      <trkpt lat="49.65352" lon="1.56214">
        <ele>250</ele>
        <time>2015-10-14T08:39:22Z</time>
      </trkpt>
      <trkpt lat="49.65358" lon="1.56201">
        <ele>252</ele>
        <time>2015-10-14T08:39:32Z</time>
      </trkpt>
      <trkpt lat="49.65368" lon="1.56188">
        <ele>252</ele>
        <time>2015-10-14T08:39:45Z</time>
      </trkpt>
      <trkpt lat="49.65379" lon="1.56164">
        <ele>258</ele>
        <time>2015-10-14T08:40:00Z</time>
      </trkpt>
      <trkpt lat="49.65385" lon="1.56141">
        <ele>254</ele>
        <time>2015-10-14T08:40:07Z</time>
      </trkpt>
      <trkpt lat="49.65385" lon="1.56122">
        <ele>255</ele>
        <time>2015-10-14T08:40:14Z</time>
      </trkpt>
      <trkpt lat="49.65397" lon="1.56101">
        <ele>249</ele>
        <time>2015-10-14T08:40:28Z</time>
      </trkpt>
      <trkpt lat="49.65409" lon="1.56078">
        <ele>253</ele>
        <time>2015-10-14T08:40:44Z</time>
      </trkpt>
      <trkpt lat="49.65411" lon="1.56054">
        <ele>251</ele>
        <time>2015-10-14T08:40:53Z</time>
      </trkpt>
      <trkpt lat="49.65409" lon="1.56036">
        <ele>251</ele>
        <time>2015-10-14T08:41:03Z</time>
      </trkpt>
      <trkpt lat="49.65411" lon="1.5601">
        <ele>254</ele>
        <time>2015-10-14T08:41:15Z</time>
      </trkpt>
      <trkpt lat="49.65418" lon="1.56">
        <ele>252</ele>
        <time>2015-10-14T08:41:24Z</time>
      </trkpt>
      <trkpt lat="49.65418" lon="1.56">
        <ele>252</ele>
        <time>2015-10-14T08:41:29Z</time>
      </trkpt>
      <trkpt lat="49.65425" lon="1.55988">
        <ele>252</ele>
        <time>2015-10-14T08:41:33Z</time>
      </trkpt>
      <trkpt lat="49.65431" lon="1.5597">
        <ele>249</ele>
        <time>2015-10-14T08:41:46Z</time>
      </trkpt>
      <trkpt lat="49.65442" lon="1.55951">
        <ele>245</ele>
        <time>2015-10-14T08:42:03Z</time>
      </trkpt>
      <trkpt lat="49.65447" lon="1.5593">
        <ele>245</ele>
        <time>2015-10-14T08:42:19Z</time>
      </trkpt>
      <trkpt lat="49.65459" lon="1.55914">
        <ele>245</ele>
        <time>2015-10-14T08:42:34Z</time>
      </trkpt>
      <trkpt lat="49.65454" lon="1.5592">
        <ele>242</ele>
        <time>2015-10-14T08:42:42Z</time>
      </trkpt>
      <trkpt lat="49.65453" lon="1.55891">
        <ele>248</ele>
        <time>2015-10-14T09:01:23Z</time>
      </trkpt>
      <trkpt lat="49.65459" lon="1.55872">
        <ele>250</ele>
        <time>2015-10-14T09:01:35Z</time>
      </trkpt>
      <trkpt lat="49.65468" lon="1.55849">
        <ele>250</ele>
        <time>2015-10-14T09:01:50Z</time>
      </trkpt>
      <trkpt lat="49.65476" lon="1.55826">
        <ele>251</ele>
        <time>2015-10-14T09:02:03Z</time>
      </trkpt>
      <trkpt lat="49.65476" lon="1.55826">
        <ele>251</ele>
        <time>2015-10-14T09:02:10Z</time>
      </trkpt>
      <trkpt lat="49.65476" lon="1.55826">
        <ele>251</ele>
        <time>2015-10-14T09:02:11Z</time>
      </trkpt>
      <trkpt lat="49.65471" lon="1.558">
        <ele>249</ele>
        <time>2015-10-14T09:02:26Z</time>
      </trkpt>
      <trkpt lat="49.65493" lon="1.55793">
        <ele>247</ele>
        <time>2015-10-14T09:02:32Z</time>
      </trkpt>
      <trkpt lat="49.65501" lon="1.55767">
        <ele>247</ele>
        <time>2015-10-14T09:02:50Z</time>
      </trkpt>
      <trkpt lat="49.65513" lon="1.55745">
        <ele>246</ele>
        <time>2015-10-14T09:03:03Z</time>
      </trkpt>
      <trkpt lat="49.65523" lon="1.5571">
        <ele>245</ele>
        <time>2015-10-14T09:03:22Z</time>
      </trkpt>
      <trkpt lat="49.65534" lon="1.55686">
        <ele>244</ele>
        <time>2015-10-14T09:03:33Z</time>
      </trkpt>
      <trkpt lat="49.65537" lon="1.55675">
        <ele>243</ele>
        <time>2015-10-14T09:03:47Z</time>
      </trkpt>
      <trkpt lat="49.65548" lon="1.55655">
        <ele>245</ele>
        <time>2015-10-14T09:03:56Z</time>
      </trkpt>
      <trkpt lat="49.65544" lon="1.5564">
        <ele>244</ele>
        <time>2015-10-14T09:04:09Z</time>
      </trkpt>
      <trkpt lat="49.65555" lon="1.55623">
        <ele>242</ele>
        <time>2015-10-14T09:04:22Z</time>
      </trkpt>
      <trkpt lat="49.65561" lon="1.55607">
        <ele>244</ele>
        <time>2015-10-14T09:04:29Z</time>
      </trkpt>
      <trkpt lat="49.65576" lon="1.55576">
        <ele>242</ele>
        <time>2015-10-14T09:04:50Z</time>
      </trkpt>
      <trkpt lat="49.65582" lon="1.55542">
        <ele>244</ele>
        <time>2015-10-14T09:05:09Z</time>
      </trkpt>
      <trkpt lat="49.65584" lon="1.55533">
        <ele>245</ele>
        <time>2015-10-14T09:05:14Z</time>
      </trkpt>
      <trkpt lat="49.65589" lon="1.5552">
        <ele>243</ele>
        <time>2015-10-14T09:05:25Z</time>
      </trkpt>
      <trkpt lat="49.656" lon="1.55503">
        <ele>242</ele>
        <time>2015-10-14T09:05:36Z</time>
      </trkpt>
      <trkpt lat="49.65603" lon="1.55479">
        <ele>243</ele>
        <time>2015-10-14T09:05:48Z</time>
      </trkpt>
      <trkpt lat="49.65611" lon="1.55467">
        <ele>239</ele>
        <time>2015-10-14T09:06:02Z</time>
      </trkpt>
      <trkpt lat="49.65622" lon="1.55444">
        <ele>241</ele>
        <time>2015-10-14T09:06:13Z</time>
      </trkpt>
      <trkpt lat="49.65634" lon="1.55433">
        <ele>239</ele>
        <time>2015-10-14T09:06:26Z</time>
      </trkpt>
      <trkpt lat="49.65653" lon="1.55406">
        <ele>243</ele>
        <time>2015-10-14T09:06:44Z</time>
      </trkpt>
      <trkpt lat="49.65674" lon="1.55378">
        <ele>247</ele>
        <time>2015-10-14T09:07:01Z</time>
      </trkpt>
      <trkpt lat="49.65679" lon="1.5537">
        <ele>249</ele>
        <time>2015-10-14T09:07:04Z</time>
      </trkpt>
      <trkpt lat="49.65686" lon="1.55365">
        <ele>246</ele>
        <time>2015-10-14T09:07:14Z</time>
      </trkpt>
      <trkpt lat="49.657" lon="1.55349">
        <ele>243</ele>
        <time>2015-10-14T09:07:29Z</time>
      </trkpt>
      <trkpt lat="49.6571" lon="1.55334">
        <ele>247</ele>
        <time>2015-10-14T09:07:40Z</time>
      </trkpt>
      <trkpt lat="49.65725" lon="1.55318">
        <ele>246</ele>
        <time>2015-10-14T09:07:56Z</time>
      </trkpt>
      <trkpt lat="49.65739" lon="1.553">
        <ele>246</ele>
        <time>2015-10-14T09:08:10Z</time>
      </trkpt>
      <trkpt lat="49.65751" lon="1.55283">
        <ele>247</ele>
        <time>2015-10-14T09:08:21Z</time>
      </trkpt>
      <trkpt lat="49.65756" lon="1.55273">
        <ele>248</ele>
        <time>2015-10-14T09:08:27Z</time>
      </trkpt>
      <trkpt lat="49.65758" lon="1.55264">
        <ele>245</ele>
        <time>2015-10-14T09:08:37Z</time>
      </trkpt>
      <trkpt lat="49.6577" lon="1.55248">
        <ele>243</ele>
        <time>2015-10-14T09:08:54Z</time>
      </trkpt>
      <trkpt lat="49.65781" lon="1.55236">
        <ele>242</ele>
        <time>2015-10-14T09:09:07Z</time>
      </trkpt>
      <trkpt lat="49.65792" lon="1.55214">
        <ele>244</ele>
        <time>2015-10-14T09:09:18Z</time>
      </trkpt>
      <trkpt lat="49.65798" lon="1.55205">
        <ele>247</ele>
        <time>2015-10-14T09:09:29Z</time>
      </trkpt>
      <trkpt lat="49.65807" lon="1.5519">
        <ele>246</ele>
        <time>2015-10-14T09:09:38Z</time>
      </trkpt>
      <trkpt lat="49.65809" lon="1.55174">
        <ele>245</ele>
        <time>2015-10-14T09:09:51Z</time>
      </trkpt>
      <trkpt lat="49.65814" lon="1.5517">
        <ele>243</ele>
        <time>2015-10-14T09:09:58Z</time>
      </trkpt>
      <trkpt lat="49.65823" lon="1.55162">
        <ele>242</ele>
        <time>2015-10-14T09:10:09Z</time>
      </trkpt>
      <trkpt lat="49.65828" lon="1.5515">
        <ele>242</ele>
        <time>2015-10-14T09:10:16Z</time>
      </trkpt>
      <trkpt lat="49.65839" lon="1.55125">
        <ele>245</ele>
        <time>2015-10-14T09:10:25Z</time>
      </trkpt>
      <trkpt lat="49.65843" lon="1.55114">
        <ele>244</ele>
        <time>2015-10-14T09:10:32Z</time>
      </trkpt>
      <trkpt lat="49.65855" lon="1.55096">
        <ele>246</ele>
        <time>2015-10-14T09:10:47Z</time>
      </trkpt>
      <trkpt lat="49.65866" lon="1.55075">
        <ele>244</ele>
        <time>2015-10-14T09:11:01Z</time>
      </trkpt>
      <trkpt lat="49.65873" lon="1.55058">
        <ele>246</ele>
        <time>2015-10-14T09:11:10Z</time>
      </trkpt>
      <trkpt lat="49.6588" lon="1.55039">
        <ele>245</ele>
        <time>2015-10-14T09:11:24Z</time>
      </trkpt>
      <trkpt lat="49.65895" lon="1.55011">
        <ele>249</ele>
        <time>2015-10-14T09:11:38Z</time>
      </trkpt>
      <trkpt lat="49.65913" lon="1.54978">
        <ele>255</ele>
        <time>2015-10-14T09:11:50Z</time>
      </trkpt>
      <trkpt lat="49.65925" lon="1.54956">
        <ele>256</ele>
        <time>2015-10-14T09:12:05Z</time>
      </trkpt>
      <trkpt lat="49.65937" lon="1.54929">
        <ele>262</ele>
        <time>2015-10-14T09:12:17Z</time>
      </trkpt>
      <trkpt lat="49.65938" lon="1.54933">
        <ele>253</ele>
        <time>2015-10-14T09:12:28Z</time>
      </trkpt>
      <trkpt lat="49.65948" lon="1.54919">
        <ele>253</ele>
        <time>2015-10-14T09:12:37Z</time>
      </trkpt>
      <trkpt lat="49.65959" lon="1.549">
        <ele>255</ele>
        <time>2015-10-14T09:12:48Z</time>
      </trkpt>
      <trkpt lat="49.65963" lon="1.54897">
        <ele>248</ele>
        <time>2015-10-14T09:13:02Z</time>
      </trkpt>
      <trkpt lat="49.65963" lon="1.54897">
        <ele>248</ele>
        <time>2015-10-14T09:13:07Z</time>
      </trkpt>
      <trkpt lat="49.65963" lon="1.54897">
        <ele>248</ele>
        <time>2015-10-14T09:13:08Z</time>
      </trkpt>
      <trkpt lat="49.6598" lon="1.54875">
        <ele>248</ele>
        <time>2015-10-14T09:13:20Z</time>
      </trkpt>
      <trkpt lat="49.65992" lon="1.54851">
        <ele>250</ele>
        <time>2015-10-14T09:13:31Z</time>
      </trkpt>
      <trkpt lat="49.65996" lon="1.54839">
        <ele>248</ele>
        <time>2015-10-14T09:13:38Z</time>
      </trkpt>
      <trkpt lat="49.66002" lon="1.54828">
        <ele>247</ele>
        <time>2015-10-14T09:13:54Z</time>
      </trkpt>
      <trkpt lat="49.6601" lon="1.54802">
        <ele>248</ele>
        <time>2015-10-14T09:14:03Z</time>
      </trkpt>
      <trkpt lat="49.6601" lon="1.54802">
        <ele>248</ele>
        <time>2015-10-14T09:14:09Z</time>
      </trkpt>
      <trkpt lat="49.66013" lon="1.54783">
        <ele>247</ele>
        <time>2015-10-14T09:14:14Z</time>
      </trkpt>
      <trkpt lat="49.66013" lon="1.54764">
        <ele>243</ele>
        <time>2015-10-14T09:14:23Z</time>
      </trkpt>
      <trkpt lat="49.6602" lon="1.54743">
        <ele>243</ele>
        <time>2015-10-14T09:14:35Z</time>
      </trkpt>
      <trkpt lat="49.66023" lon="1.54733">
        <ele>246</ele>
        <time>2015-10-14T09:14:38Z</time>
      </trkpt>
      <trkpt lat="49.66025" lon="1.54722">
        <ele>238</ele>
        <time>2015-10-14T09:14:50Z</time>
      </trkpt>
      <trkpt lat="49.66036" lon="1.54695">
        <ele>238</ele>
        <time>2015-10-14T09:15:06Z</time>
      </trkpt>
      <trkpt lat="49.66045" lon="1.54662">
        <ele>242</ele>
        <time>2015-10-14T09:15:25Z</time>
      </trkpt>
      <trkpt lat="49.66057" lon="1.54623">
        <ele>243</ele>
        <time>2015-10-14T09:15:45Z</time>
      </trkpt>
      <trkpt lat="49.66066" lon="1.54616">
        <ele>242</ele>
        <time>2015-10-14T09:15:54Z</time>
      </trkpt>
      <trkpt lat="49.66077" lon="1.54589">
        <ele>246</ele>
        <time>2015-10-14T09:16:09Z</time>
      </trkpt>
      <trkpt lat="49.66079" lon="1.54588">
        <ele>246</ele>
        <time>2015-10-14T09:16:21Z</time>
      </trkpt>
      <trkpt lat="49.66089" lon="1.54564">
        <ele>248</ele>
        <time>2015-10-14T09:16:29Z</time>
      </trkpt>
      <trkpt lat="49.66092" lon="1.54545">
        <ele>251</ele>
        <time>2015-10-14T09:16:36Z</time>
      </trkpt>
      <trkpt lat="49.66096" lon="1.54531">
        <ele>249</ele>
        <time>2015-10-14T09:16:48Z</time>
      </trkpt>
      <trkpt lat="49.66115" lon="1.54516">
        <ele>246</ele>
        <time>2015-10-14T09:17:08Z</time>
      </trkpt>
      <trkpt lat="49.66134" lon="1.54478">
        <ele>249</ele>
        <time>2015-10-14T09:17:30Z</time>
      </trkpt>
      <trkpt lat="49.66147" lon="1.54444">
        <ele>250</ele>
        <time>2015-10-14T09:17:45Z</time>
      </trkpt>
      <trkpt lat="49.6615" lon="1.54436">
        <ele>251</ele>
        <time>2015-10-14T09:17:48Z</time>
      </trkpt>
      <trkpt lat="49.66159" lon="1.54428">
        <ele>250</ele>
        <time>2015-10-14T09:18:01Z</time>
      </trkpt>
      <trkpt lat="49.66166" lon="1.54417">
        <ele>249</ele>
        <time>2015-10-14T09:18:10Z</time>
      </trkpt>
      <trkpt lat="49.66167" lon="1.54373">
        <ele>249</ele>
        <time>2015-10-14T09:18:31Z</time>
      </trkpt>
      <trkpt lat="49.66167" lon="1.54348">
        <ele>252</ele>
        <time>2015-10-14T09:18:43Z</time>
      </trkpt>
      <trkpt lat="49.66167" lon="1.54315">
        <ele>253</ele>
        <time>2015-10-14T09:18:56Z</time>
      </trkpt>
      <trkpt lat="49.66176" lon="1.54309">
        <ele>244</ele>
        <time>2015-10-14T09:19:08Z</time>
      </trkpt>
      <trkpt lat="49.6618" lon="1.54276">
        <ele>243</ele>
        <time>2015-10-14T09:19:26Z</time>
      </trkpt>
      <trkpt lat="49.66183" lon="1.54249">
        <ele>244</ele>
        <time>2015-10-14T09:19:41Z</time>
      </trkpt>
      <trkpt lat="49.66189" lon="1.54218">
        <ele>245</ele>
        <time>2015-10-14T09:19:57Z</time>
      </trkpt>
      <trkpt lat="49.66197" lon="1.54196">
        <ele>242</ele>
        <time>2015-10-14T09:20:13Z</time>
      </trkpt>
      <trkpt lat="49.66209" lon="1.54172">
        <ele>244</ele>
        <time>2015-10-14T09:20:30Z</time>
      </trkpt>
      <trkpt lat="49.66207" lon="1.54149">
        <ele>245</ele>
        <time>2015-10-14T09:20:39Z</time>
      </trkpt>
      <trkpt lat="49.66209" lon="1.54141">
        <ele>247</ele>
        <time>2015-10-14T09:20:44Z</time>
      </trkpt>
      <trkpt lat="49.66213" lon="1.54132">
        <ele>246</ele>
        <time>2015-10-14T09:20:56Z</time>
      </trkpt>
      <trkpt lat="49.66219" lon="1.54113">
        <ele>248</ele>
        <time>2015-10-14T09:21:06Z</time>
      </trkpt>
      <trkpt lat="49.66223" lon="1.54085">
        <ele>242</ele>
        <time>2015-10-14T09:21:20Z</time>
      </trkpt>
      <trkpt lat="49.66226" lon="1.54063">
        <ele>244</ele>
        <time>2015-10-14T09:21:34Z</time>
      </trkpt>
      <trkpt lat="49.66229" lon="1.54031">
        <ele>245</ele>
        <time>2015-10-14T09:21:48Z</time>
      </trkpt>
      <trkpt lat="49.66229" lon="1.54014">
        <ele>246</ele>
        <time>2015-10-14T09:21:59Z</time>
      </trkpt>
      <trkpt lat="49.66229" lon="1.54014">
        <ele>246</ele>
        <time>2015-10-14T09:22:06Z</time>
      </trkpt>
      <trkpt lat="49.66232" lon="1.53992">
        <ele>243</ele>
        <time>2015-10-14T09:22:12Z</time>
      </trkpt>
      <trkpt lat="49.66237" lon="1.53969">
        <ele>242</ele>
        <time>2015-10-14T09:22:26Z</time>
      </trkpt>
      <trkpt lat="49.66242" lon="1.53957">
        <ele>242</ele>
        <time>2015-10-14T09:22:35Z</time>
      </trkpt>
      <trkpt lat="49.66246" lon="1.53927">
        <ele>239</ele>
        <time>2015-10-14T09:22:53Z</time>
      </trkpt>
      <trkpt lat="49.66247" lon="1.53913">
        <ele>240</ele>
        <time>2015-10-14T09:23:04Z</time>
      </trkpt>
      <trkpt lat="49.66252" lon="1.53887">
        <ele>241</ele>
        <time>2015-10-14T09:23:19Z</time>
      </trkpt>
      <trkpt lat="49.6626" lon="1.53865">
        <ele>238</ele>
        <time>2015-10-14T09:23:35Z</time>
      </trkpt>
      <trkpt lat="49.66262" lon="1.53841">
        <ele>237</ele>
        <time>2015-10-14T09:23:48Z</time>
      </trkpt>
      <trkpt lat="49.66269" lon="1.53811">
        <ele>240</ele>
        <time>2015-10-14T09:24:08Z</time>
      </trkpt>
      <trkpt lat="49.66269" lon="1.53784">
        <ele>235</ele>
        <time>2015-10-14T09:24:21Z</time>
      </trkpt>
      <trkpt lat="49.6627" lon="1.53777">
        <ele>234</ele>
        <time>2015-10-14T09:24:26Z</time>
      </trkpt>
      <trkpt lat="49.66271" lon="1.53765">
        <ele>234</ele>
        <time>2015-10-14T09:24:35Z</time>
      </trkpt>
      <trkpt lat="49.66274" lon="1.53754">
        <ele>235</ele>
        <time>2015-10-14T09:24:43Z</time>
      </trkpt>
      <trkpt lat="49.66273" lon="1.53734">
        <ele>233</ele>
        <time>2015-10-14T09:24:55Z</time>
      </trkpt>
      <trkpt lat="49.66273" lon="1.53734">
        <ele>233</ele>
        <time>2015-10-14T09:25:03Z</time>
      </trkpt>
      <trkpt lat="49.66278" lon="1.53711">
        <ele>230</ele>
        <time>2015-10-14T09:25:11Z</time>
      </trkpt>
      <trkpt lat="49.66277" lon="1.53695">
        <ele>229</ele>
        <time>2015-10-14T09:25:26Z</time>
      </trkpt>
      <trkpt lat="49.66275" lon="1.53669">
        <ele>229</ele>
        <time>2015-10-14T09:25:36Z</time>
      </trkpt>
      <trkpt lat="49.66273" lon="1.5365">
        <ele>229</ele>
        <time>2015-10-14T09:25:51Z</time>
      </trkpt>
      <trkpt lat="49.66271" lon="1.53639">
        <ele>227</ele>
        <time>2015-10-14T09:26:04Z</time>
      </trkpt>
      <trkpt lat="49.66262" lon="1.53607">
        <ele>224</ele>
        <time>2015-10-14T09:26:25Z</time>
      </trkpt>
      <trkpt lat="49.66254" lon="1.53582">
        <ele>222</ele>
        <time>2015-10-14T09:26:39Z</time>
      </trkpt>
      <trkpt lat="49.66246" lon="1.53545">
        <ele>226</ele>
        <time>2015-10-14T09:26:58Z</time>
      </trkpt>
      <trkpt lat="49.66243" lon="1.53517">
        <ele>225</ele>
        <time>2015-10-14T09:27:18Z</time>
      </trkpt>
      <trkpt lat="49.66238" lon="1.53497">
        <ele>222</ele>
        <time>2015-10-14T09:27:31Z</time>
      </trkpt>
      <trkpt lat="49.66237" lon="1.5347">
        <ele>224</ele>
        <time>2015-10-14T09:27:48Z</time>
      </trkpt>
      <trkpt lat="49.66229" lon="1.53444">
        <ele>223</ele>
        <time>2015-10-14T09:28:05Z</time>
      </trkpt>
      <trkpt lat="49.66224" lon="1.53425">
        <ele>222</ele>
        <time>2015-10-14T09:28:17Z</time>
      </trkpt>
      <trkpt lat="49.66219" lon="1.53401">
        <ele>223</ele>
        <time>2015-10-14T09:28:31Z</time>
      </trkpt>
      <trkpt lat="49.66219" lon="1.53384">
        <ele>218</ele>
        <time>2015-10-14T09:28:45Z</time>
      </trkpt>
      <trkpt lat="49.66213" lon="1.53364">
        <ele>216</ele>
        <time>2015-10-14T09:28:58Z</time>
      </trkpt>
      <trkpt lat="49.66203" lon="1.53323">
        <ele>221</ele>
        <time>2015-10-14T09:29:15Z</time>
      </trkpt>
      <trkpt lat="49.66204" lon="1.53304">
        <ele>224</ele>
        <time>2015-10-14T09:29:24Z</time>
      </trkpt>
      <trkpt lat="49.66207" lon="1.53286">
        <ele>220</ele>
        <time>2015-10-14T09:29:37Z</time>
      </trkpt>
      <trkpt lat="49.66221" lon="1.53262">
        <ele>221</ele>
        <time>2015-10-14T09:29:54Z</time>
      </trkpt>
      <trkpt lat="49.6624" lon="1.53243">
        <ele>224</ele>
        <time>2015-10-14T09:30:12Z</time>
      </trkpt>
      <trkpt lat="49.66251" lon="1.53228">
        <ele>219</ele>
        <time>2015-10-14T09:30:24Z</time>
      </trkpt>
      <trkpt lat="49.66255" lon="1.53215">
        <ele>223</ele>
        <time>2015-10-14T09:30:31Z</time>
      </trkpt>
      <trkpt lat="49.66251" lon="1.53228">
        <ele>219</ele>
        <time>2015-10-14T09:30:39Z</time>
      </trkpt>
      <trkpt lat="49.66269" lon="1.53206">
        <ele>222</ele>
        <time>2015-10-14T09:31:04Z</time>
      </trkpt>
      <trkpt lat="49.66288" lon="1.53183">
        <ele>225</ele>
        <time>2015-10-14T09:31:24Z</time>
      </trkpt>
      <trkpt lat="49.66299" lon="1.53165">
        <ele>229</ele>
        <time>2015-10-14T09:31:35Z</time>
      </trkpt>
      <trkpt lat="49.66307" lon="1.53158">
        <ele>227</ele>
        <time>2015-10-14T09:31:46Z</time>
      </trkpt>
      <trkpt lat="49.66317" lon="1.53143">
        <ele>225</ele>
        <time>2015-10-14T09:32:02Z</time>
      </trkpt>
      <trkpt lat="49.66327" lon="1.53132">
        <ele>222</ele>
        <time>2015-10-14T09:32:15Z</time>
      </trkpt>
      <trkpt lat="49.66345" lon="1.5311">
        <ele>222</ele>
        <time>2015-10-14T09:32:34Z</time>
      </trkpt>
      <trkpt lat="49.66356" lon="1.53096">
        <ele>223</ele>
        <time>2015-10-14T09:32:46Z</time>
      </trkpt>
      <trkpt lat="49.66362" lon="1.53088">
        <ele>224</ele>
        <time>2015-10-14T09:32:53Z</time>
      </trkpt>
      <trkpt lat="49.66378" lon="1.53058">
        <ele>227</ele>
        <time>2015-10-14T09:33:11Z</time>
      </trkpt>
      <trkpt lat="49.66384" lon="1.53041">
        <ele>224</ele>
        <time>2015-10-14T09:33:27Z</time>
      </trkpt>
      <trkpt lat="49.66398" lon="1.53024">
        <ele>225</ele>
        <time>2015-10-14T09:33:41Z</time>
      </trkpt>
      <trkpt lat="49.66407" lon="1.53013">
        <ele>225</ele>
        <time>2015-10-14T09:33:50Z</time>
      </trkpt>
      <trkpt lat="49.66424" lon="1.5298">
        <ele>227</ele>
        <time>2015-10-14T09:34:10Z</time>
      </trkpt>
      <trkpt lat="49.66428" lon="1.5297">
        <ele>228</ele>
        <time>2015-10-14T09:34:16Z</time>
      </trkpt>
      <trkpt lat="49.66424" lon="1.5298">
        <ele>227</ele>
        <time>2015-10-14T09:34:24Z</time>
      </trkpt>
      <trkpt lat="49.66435" lon="1.52966">
        <ele>218</ele>
        <time>2015-10-14T09:34:51Z</time>
      </trkpt>
      <trkpt lat="49.66447" lon="1.52945">
        <ele>221</ele>
        <time>2015-10-14T09:35:06Z</time>
      </trkpt>
      <trkpt lat="49.66456" lon="1.52927">
        <ele>219</ele>
        <time>2015-10-14T09:35:21Z</time>
      </trkpt>
      <trkpt lat="49.66472" lon="1.52906">
        <ele>223</ele>
        <time>2015-10-14T09:35:34Z</time>
      </trkpt>
      <trkpt lat="49.6648" lon="1.52897">
        <ele>225</ele>
        <time>2015-10-14T09:35:40Z</time>
      </trkpt>
      <trkpt lat="49.66487" lon="1.52886">
        <ele>225</ele>
        <time>2015-10-14T09:35:52Z</time>
      </trkpt>
      <trkpt lat="49.66495" lon="1.52868">
        <ele>228</ele>
        <time>2015-10-14T09:36:00Z</time>
      </trkpt>
      <trkpt lat="49.66509" lon="1.52845">
        <ele>231</ele>
        <time>2015-10-14T09:36:18Z</time>
      </trkpt>
      <trkpt lat="49.66509" lon="1.52845">
        <ele>231</ele>
        <time>2015-10-14T09:36:26Z</time>
      </trkpt>
      <trkpt lat="49.66516" lon="1.52835">
        <ele>225</ele>
        <time>2015-10-14T09:36:36Z</time>
      </trkpt>
      <trkpt lat="49.6653" lon="1.52817">
        <ele>223</ele>
        <time>2015-10-14T09:36:50Z</time>
      </trkpt>
      <trkpt lat="49.66541" lon="1.52789">
        <ele>223</ele>
        <time>2015-10-14T09:37:07Z</time>
      </trkpt>
      <trkpt lat="49.66556" lon="1.52772">
        <ele>229</ele>
        <time>2015-10-14T09:37:22Z</time>
      </trkpt>
      <trkpt lat="49.66566" lon="1.52751">
        <ele>230</ele>
        <time>2015-10-14T09:37:34Z</time>
      </trkpt>
      <trkpt lat="49.66577" lon="1.52725">
        <ele>230</ele>
        <time>2015-10-14T09:37:46Z</time>
      </trkpt>
      <trkpt lat="49.66586" lon="1.52709">
        <ele>234</ele>
        <time>2015-10-14T09:38:00Z</time>
      </trkpt>
      <trkpt lat="49.66595" lon="1.52695">
        <ele>236</ele>
        <time>2015-10-14T09:38:11Z</time>
      </trkpt>
      <trkpt lat="49.66599" lon="1.52686">
        <ele>234</ele>
        <time>2015-10-14T09:38:21Z</time>
      </trkpt>
      <trkpt lat="49.66603" lon="1.52683">
        <ele>230</ele>
        <time>2015-10-14T09:38:29Z</time>
      </trkpt>
      <trkpt lat="49.66614" lon="1.52671">
        <ele>216</ele>
        <time>2015-10-14T09:39:04Z</time>
      </trkpt>
      <trkpt lat="49.66629" lon="1.52648">
        <ele>218</ele>
        <time>2015-10-14T09:39:20Z</time>
      </trkpt>
      <trkpt lat="49.66643" lon="1.52632">
        <ele>223</ele>
        <time>2015-10-14T09:39:35Z</time>
      </trkpt>
      <trkpt lat="49.66649" lon="1.52618">
        <ele>222</ele>
        <time>2015-10-14T09:39:42Z</time>
      </trkpt>
      <trkpt lat="49.66654" lon="1.5261">
        <ele>221</ele>
        <time>2015-10-14T09:39:52Z</time>
      </trkpt>
      <trkpt lat="49.66668" lon="1.52593">
        <ele>223</ele>
        <time>2015-10-14T09:40:08Z</time>
      </trkpt>
      <trkpt lat="49.66681" lon="1.52575">
        <ele>222</ele>
        <time>2015-10-14T09:40:25Z</time>
      </trkpt>
      <trkpt lat="49.66695" lon="1.52552">
        <ele>223</ele>
        <time>2015-10-14T09:40:42Z</time>
      </trkpt>
      <trkpt lat="49.66704" lon="1.52534">
        <ele>225</ele>
        <time>2015-10-14T09:40:52Z</time>
      </trkpt>
      <trkpt lat="49.66714" lon="1.52515">
        <ele>226</ele>
        <time>2015-10-14T09:41:04Z</time>
      </trkpt>
      <trkpt lat="49.66717" lon="1.52507">
        <ele>229</ele>
        <time>2015-10-14T09:41:06Z</time>
      </trkpt>
      <trkpt lat="49.66714" lon="1.52515">
        <ele>226</ele>
        <time>2015-10-14T09:41:14Z</time>
      </trkpt>
      <trkpt lat="49.66725" lon="1.52512">
        <ele>218</ele>
        <time>2015-10-14T09:41:22Z</time>
      </trkpt>
      <trkpt lat="49.66745" lon="1.52487">
        <ele>222</ele>
        <time>2015-10-14T09:41:39Z</time>
      </trkpt>
      <trkpt lat="49.6676" lon="1.52469">
        <ele>222</ele>
        <time>2015-10-14T09:41:52Z</time>
      </trkpt>
      <trkpt lat="49.66774" lon="1.52458">
        <ele>224</ele>
        <time>2015-10-14T09:42:06Z</time>
      </trkpt>
      <trkpt lat="49.66793" lon="1.52438">
        <ele>226</ele>
        <time>2015-10-14T09:42:24Z</time>
      </trkpt>
      <trkpt lat="49.66796" lon="1.52436">
        <ele>226</ele>
        <time>2015-10-14T09:42:26Z</time>
      </trkpt>
      <trkpt lat="49.66804" lon="1.52415">
        <ele>223</ele>
        <time>2015-10-14T09:42:42Z</time>
      </trkpt>
      <trkpt lat="49.6682" lon="1.5241">
        <ele>224</ele>
        <time>2015-10-14T09:42:56Z</time>
      </trkpt>
      <trkpt lat="49.66828" lon="1.52387">
        <ele>221</ele>
        <time>2015-10-14T09:43:05Z</time>
      </trkpt>
      <trkpt lat="49.66837" lon="1.52381">
        <ele>218</ele>
        <time>2015-10-14T09:43:19Z</time>
      </trkpt>
      <trkpt lat="49.66852" lon="1.52352">
        <ele>217</ele>
        <time>2015-10-14T09:43:37Z</time>
      </trkpt>
      <trkpt lat="49.66867" lon="1.52337">
        <ele>213</ele>
        <time>2015-10-14T09:43:58Z</time>
      </trkpt>
      <trkpt lat="49.66885" lon="1.52324">
        <ele>214</ele>
        <time>2015-10-14T09:44:15Z</time>
      </trkpt>
      <trkpt lat="49.66892" lon="1.52314">
        <ele>214</ele>
        <time>2015-10-14T09:44:24Z</time>
      </trkpt>
      <trkpt lat="49.66909" lon="1.52306">
        <ele>215</ele>
        <time>2015-10-14T09:44:41Z</time>
      </trkpt>
      <trkpt lat="49.66929" lon="1.52277">
        <ele>212</ele>
        <time>2015-10-14T09:46:00Z</time>
      </trkpt>
      <trkpt lat="49.66952" lon="1.52241">
        <ele>225</ele>
        <time>2015-10-14T09:46:28Z</time>
      </trkpt>
      <trkpt lat="49.66965" lon="1.52219">
        <ele>218</ele>
        <time>2015-10-14T09:46:45Z</time>
      </trkpt>
      <trkpt lat="49.66979" lon="1.52199">
        <ele>220</ele>
        <time>2015-10-14T09:47:01Z</time>
      </trkpt>
      <trkpt lat="49.66991" lon="1.52178">
        <ele>220</ele>
        <time>2015-10-14T09:47:21Z</time>
      </trkpt>
      <trkpt lat="49.67008" lon="1.52178">
        <ele>218</ele>
        <time>2015-10-14T09:47:32Z</time>
      </trkpt>
      <trkpt lat="49.67017" lon="1.5217">
        <ele>222</ele>
        <time>2015-10-14T09:47:40Z</time>
      </trkpt>
      <trkpt lat="49.67026" lon="1.52156">
        <ele>218</ele>
        <time>2015-10-14T09:47:56Z</time>
      </trkpt>
      <trkpt lat="49.67039" lon="1.5214">
        <ele>216</ele>
        <time>2015-10-14T09:48:11Z</time>
      </trkpt>
      <trkpt lat="49.67038" lon="1.52133">
        <ele>215</ele>
        <time>2015-10-14T09:48:14Z</time>
      </trkpt>
      <trkpt lat="49.67039" lon="1.52129">
        <ele>216</ele>
        <time>2015-10-14T09:48:20Z</time>
      </trkpt>
      <trkpt lat="49.67065" lon="1.52106">
        <ele>215</ele>
        <time>2015-10-14T09:48:53Z</time>
      </trkpt>
      <trkpt lat="49.67073" lon="1.521">
        <ele>214</ele>
        <time>2015-10-14T09:49:00Z</time>
      </trkpt>
      <trkpt lat="49.67082" lon="1.5209">
        <ele>214</ele>
        <time>2015-10-14T09:49:09Z</time>
      </trkpt>
      <trkpt lat="49.67085" lon="1.52083">
        <ele>213</ele>
        <time>2015-10-14T09:49:17Z</time>
      </trkpt>
      <trkpt lat="49.67098" lon="1.52071">
        <ele>221</ele>
        <time>2015-10-14T09:49:59Z</time>
      </trkpt>
      <trkpt lat="49.6711" lon="1.5206">
        <ele>219</ele>
        <time>2015-10-14T09:50:11Z</time>
      </trkpt>
      <trkpt lat="49.6713" lon="1.5205">
        <ele>214</ele>
        <time>2015-10-14T09:50:30Z</time>
      </trkpt>
      <trkpt lat="49.6715" lon="1.5204">
        <ele>218</ele>
        <time>2015-10-14T09:50:47Z</time>
      </trkpt>
      <trkpt lat="49.67167" lon="1.52029">
        <ele>220</ele>
        <time>2015-10-14T09:50:59Z</time>
      </trkpt>
      <trkpt lat="49.67175" lon="1.52015">
        <ele>221</ele>
        <time>2015-10-14T09:51:11Z</time>
      </trkpt>
      <trkpt lat="49.67189" lon="1.52003">
        <ele>222</ele>
        <time>2015-10-14T09:51:22Z</time>
      </trkpt>
      <trkpt lat="49.67207" lon="1.5198">
        <ele>222</ele>
        <time>2015-10-14T09:51:39Z</time>
      </trkpt>
      <trkpt lat="49.6722" lon="1.51965">
        <ele>222</ele>
        <time>2015-10-14T09:51:50Z</time>
      </trkpt>
      <trkpt lat="49.67226" lon="1.51961">
        <ele>221</ele>
        <time>2015-10-14T09:51:57Z</time>
      </trkpt>
      <trkpt lat="49.67241" lon="1.5195">
        <ele>218</ele>
        <time>2015-10-14T09:52:14Z</time>
      </trkpt>
      <trkpt lat="49.67254" lon="1.5194">
        <ele>218</ele>
        <time>2015-10-14T09:52:24Z</time>
      </trkpt>
      <trkpt lat="49.67263" lon="1.51919">
        <ele>225</ele>
        <time>2015-10-14T09:52:34Z</time>
      </trkpt>
      <trkpt lat="49.67261" lon="1.51926">
        <ele>220</ele>
        <time>2015-10-14T09:52:44Z</time>
      </trkpt>
      <trkpt lat="49.6727" lon="1.51903">
        <ele>221</ele>
        <time>2015-10-14T09:53:02Z</time>
      </trkpt>
      <trkpt lat="49.6727" lon="1.51903">
        <ele>221</ele>
        <time>2015-10-14T09:53:09Z</time>
      </trkpt>
      <trkpt lat="49.6727" lon="1.51903">
        <ele>221</ele>
        <time>2015-10-14T09:53:11Z</time>
      </trkpt>
      <trkpt lat="49.67279" lon="1.51889">
        <ele>211</ele>
        <time>2015-10-14T09:53:20Z</time>
      </trkpt>
      <trkpt lat="49.67291" lon="1.51866">
        <ele>212</ele>
        <time>2015-10-14T09:53:34Z</time>
      </trkpt>
      <trkpt lat="49.67297" lon="1.51854">
        <ele>217</ele>
        <time>2015-10-14T09:53:41Z</time>
      </trkpt>
      <trkpt lat="49.67309" lon="1.51834">
        <ele>220</ele>
        <time>2015-10-14T09:53:51Z</time>
      </trkpt>
      <trkpt lat="49.67309" lon="1.51834">
        <ele>220</ele>
        <time>2015-10-14T09:53:56Z</time>
      </trkpt>
      <trkpt lat="49.67316" lon="1.51822">
        <ele>216</ele>
        <time>2015-10-14T09:54:02Z</time>
      </trkpt>
      <trkpt lat="49.67329" lon="1.51811">
        <ele>218</ele>
        <time>2015-10-14T09:54:14Z</time>
      </trkpt>
      <trkpt lat="49.67349" lon="1.51815">
        <ele>214</ele>
        <time>2015-10-14T09:54:30Z</time>
      </trkpt>
      <trkpt lat="49.67371" lon="1.51815">
        <ele>213</ele>
        <time>2015-10-14T09:54:50Z</time>
      </trkpt>
      <trkpt lat="49.67384" lon="1.51809">
        <ele>217</ele>
        <time>2015-10-14T09:55:04Z</time>
      </trkpt>
      <trkpt lat="49.67393" lon="1.51807">
        <ele>216</ele>
        <time>2015-10-14T09:55:19Z</time>
      </trkpt>
      <trkpt lat="49.67413" lon="1.51778">
        <ele>215</ele>
        <time>2015-10-14T09:55:36Z</time>
      </trkpt>
      <trkpt lat="49.67413" lon="1.51778">
        <ele>215</ele>
        <time>2015-10-14T09:55:44Z</time>
      </trkpt>
      <trkpt lat="49.67413" lon="1.51778">
        <ele>215</ele>
        <time>2015-10-14T09:55:45Z</time>
      </trkpt>
      <trkpt lat="49.67426" lon="1.51764">
        <ele>209</ele>
        <time>2015-10-14T09:55:54Z</time>
      </trkpt>
      <trkpt lat="49.67445" lon="1.51741">
        <ele>212</ele>
        <time>2015-10-14T09:56:12Z</time>
      </trkpt>
      <trkpt lat="49.67463" lon="1.5172">
        <ele>216</ele>
        <time>2015-10-14T09:56:30Z</time>
      </trkpt>
      <trkpt lat="49.67479" lon="1.51714">
        <ele>217</ele>
        <time>2015-10-14T09:56:40Z</time>
      </trkpt>
      <trkpt lat="49.67485" lon="1.51702">
        <ele>214</ele>
        <time>2015-10-14T09:56:51Z</time>
      </trkpt>
      <trkpt lat="49.67487" lon="1.51698">
        <ele>215</ele>
        <time>2015-10-14T09:56:53Z</time>
      </trkpt>
      <trkpt lat="49.67493" lon="1.51691">
        <ele>214</ele>
        <time>2015-10-14T09:57:04Z</time>
      </trkpt>
      <trkpt lat="49.6751" lon="1.51676">
        <ele>212</ele>
        <time>2015-10-14T09:57:18Z</time>
      </trkpt>
      <trkpt lat="49.67528" lon="1.51661">
        <ele>212</ele>
        <time>2015-10-14T09:57:33Z</time>
      </trkpt>
      <trkpt lat="49.67543" lon="1.51658">
        <ele>209</ele>
        <time>2015-10-14T09:57:46Z</time>
      </trkpt>
      <trkpt lat="49.67566" lon="1.51638">
        <ele>214</ele>
        <time>2015-10-14T09:58:02Z</time>
      </trkpt>
      <trkpt lat="49.67578" lon="1.51629">
        <ele>217</ele>
        <time>2015-10-14T09:58:14Z</time>
      </trkpt>
      <trkpt lat="49.676" lon="1.51621">
        <ele>221</ele>
        <time>2015-10-14T09:58:30Z</time>
      </trkpt>
      <trkpt lat="49.67618" lon="1.51617">
        <ele>221</ele>
        <time>2015-10-14T09:58:43Z</time>
      </trkpt>
      <trkpt lat="49.67618" lon="1.51617">
        <ele>221</ele>
        <time>2015-10-14T09:58:48Z</time>
      </trkpt>
      <trkpt lat="49.67618" lon="1.51617">
        <ele>221</ele>
        <time>2015-10-14T09:58:49Z</time>
      </trkpt>
      <trkpt lat="49.67632" lon="1.51611">
        <ele>217</ele>
        <time>2015-10-14T09:58:58Z</time>
      </trkpt>
      <trkpt lat="49.67646" lon="1.51595">
        <ele>216</ele>
        <time>2015-10-14T09:59:12Z</time>
      </trkpt>
      <trkpt lat="49.67656" lon="1.51596">
        <ele>214</ele>
        <time>2015-10-14T09:59:22Z</time>
      </trkpt>
      <trkpt lat="49.67665" lon="1.51581">
        <ele>220</ele>
        <time>2015-10-14T09:59:38Z</time>
      </trkpt>
      <trkpt lat="49.67673" lon="1.5156">
        <ele>223</ele>
        <time>2015-10-14T09:59:50Z</time>
      </trkpt>
      <trkpt lat="49.67689" lon="1.51536">
        <ele>222</ele>
        <time>2015-10-14T10:00:04Z</time>
      </trkpt>
      <trkpt lat="49.67695" lon="1.51515">
        <ele>222</ele>
        <time>2015-10-14T10:00:15Z</time>
      </trkpt>
      <trkpt lat="49.67703" lon="1.51509">
        <ele>217</ele>
        <time>2015-10-14T10:00:24Z</time>
      </trkpt>
      <trkpt lat="49.67709" lon="1.51491">
        <ele>216</ele>
        <time>2015-10-14T10:00:37Z</time>
      </trkpt>
      <trkpt lat="49.67715" lon="1.51475">
        <ele>221</ele>
        <time>2015-10-14T10:00:51Z</time>
      </trkpt>
      <trkpt lat="49.67721" lon="1.51457">
        <ele>222</ele>
        <time>2015-10-14T10:01:02Z</time>
      </trkpt>
      <trkpt lat="49.67721" lon="1.51457">
        <ele>222</ele>
        <time>2015-10-14T10:01:09Z</time>
      </trkpt>
      <trkpt lat="49.67721" lon="1.51457">
        <ele>222</ele>
        <time>2015-10-14T10:01:10Z</time>
      </trkpt>
      <trkpt lat="49.67733" lon="1.51439">
        <ele>207</ele>
        <time>2015-10-14T10:02:25Z</time>
      </trkpt>
      <trkpt lat="49.67749" lon="1.51426">
        <ele>213</ele>
        <time>2015-10-14T10:02:38Z</time>
      </trkpt>
      <trkpt lat="49.6776" lon="1.514">
        <ele>214</ele>
        <time>2015-10-14T10:02:53Z</time>
      </trkpt>
      <trkpt lat="49.67773" lon="1.51374">
        <ele>211</ele>
        <time>2015-10-14T10:03:11Z</time>
      </trkpt>
      <trkpt lat="49.67791" lon="1.51364">
        <ele>212</ele>
        <time>2015-10-14T10:03:26Z</time>
      </trkpt>
      <trkpt lat="49.67803" lon="1.51341">
        <ele>211</ele>
        <time>2015-10-14T10:03:41Z</time>
      </trkpt>
      <trkpt lat="49.67817" lon="1.51327">
        <ele>209</ele>
        <time>2015-10-14T10:03:55Z</time>
      </trkpt>
      <trkpt lat="49.67839" lon="1.51316">
        <ele>209</ele>
        <time>2015-10-14T10:04:12Z</time>
      </trkpt>
      <trkpt lat="49.67857" lon="1.51304">
        <ele>207</ele>
        <time>2015-10-14T10:04:26Z</time>
      </trkpt>
      <trkpt lat="49.67868" lon="1.51288">
        <ele>210</ele>
        <time>2015-10-14T10:04:39Z</time>
      </trkpt>
      <trkpt lat="49.67881" lon="1.51275">
        <ele>205</ele>
        <time>2015-10-14T10:04:57Z</time>
      </trkpt>
      <trkpt lat="49.67895" lon="1.51261">
        <ele>197</ele>
        <time>2015-10-14T10:05:09Z</time>
      </trkpt>
      <trkpt lat="49.67899" lon="1.51232">
        <ele>198</ele>
        <time>2015-10-14T10:05:24Z</time>
      </trkpt>
      <trkpt lat="49.67902" lon="1.51202">
        <ele>200</ele>
        <time>2015-10-14T10:05:38Z</time>
      </trkpt>
      <trkpt lat="49.67899" lon="1.51179">
        <ele>206</ele>
        <time>2015-10-14T10:05:48Z</time>
      </trkpt>
      <trkpt lat="49.67909" lon="1.51151">
        <ele>203</ele>
        <time>2015-10-14T10:06:00Z</time>
      </trkpt>
      <trkpt lat="49.67916" lon="1.51136">
        <ele>200</ele>
        <time>2015-10-14T10:06:12Z</time>
      </trkpt>
      <trkpt lat="49.6793" lon="1.51113">
        <ele>198</ele>
        <time>2015-10-14T10:06:32Z</time>
      </trkpt>
      <trkpt lat="49.67944" lon="1.51103">
        <ele>195</ele>
        <time>2015-10-14T10:06:43Z</time>
      </trkpt>
      <trkpt lat="49.67966" lon="1.51085">
        <ele>191</ele>
        <time>2015-10-14T10:07:03Z</time>
      </trkpt>
      <trkpt lat="49.67984" lon="1.51075">
        <ele>198</ele>
        <time>2015-10-14T10:07:19Z</time>
      </trkpt>
      <trkpt lat="49.67991" lon="1.5107">
        <ele>198</ele>
        <time>2015-10-14T10:07:23Z</time>
      </trkpt>
      <trkpt lat="49.68004" lon="1.51061">
        <ele>193</ele>
        <time>2015-10-14T10:07:36Z</time>
      </trkpt>
      <trkpt lat="49.68008" lon="1.51058">
        <ele>194</ele>
        <time>2015-10-14T10:07:40Z</time>
      </trkpt>
      <trkpt lat="49.68004" lon="1.51061">
        <ele>193</ele>
        <time>2015-10-14T10:07:46Z</time>
      </trkpt>
      <trkpt lat="49.68015" lon="1.51048">
        <ele>188</ele>
        <time>2015-10-14T10:09:12Z</time>
      </trkpt>
      <trkpt lat="49.68037" lon="1.51034">
        <ele>191</ele>
        <time>2015-10-14T10:09:26Z</time>
      </trkpt>
      <trkpt lat="49.68048" lon="1.51034">
        <ele>187</ele>
        <time>2015-10-14T10:09:37Z</time>
      </trkpt>
      <trkpt lat="49.68061" lon="1.51021">
        <ele>188</ele>
        <time>2015-10-14T10:09:46Z</time>
      </trkpt>
      <trkpt lat="49.68077" lon="1.51006">
        <ele>186</ele>
        <time>2015-10-14T10:10:01Z</time>
      </trkpt>
      <trkpt lat="49.68092" lon="1.50987">
        <ele>186</ele>
        <time>2015-10-14T10:10:15Z</time>
      </trkpt>
      <trkpt lat="49.68103" lon="1.50978">
        <ele>184</ele>
        <time>2015-10-14T10:10:24Z</time>
      </trkpt>
      <trkpt lat="49.68107" lon="1.50963">
        <ele>185</ele>
        <time>2015-10-14T10:10:34Z</time>
      </trkpt>
      <trkpt lat="49.6811" lon="1.50928">
        <ele>190</ele>
        <time>2015-10-14T10:10:50Z</time>
      </trkpt>
      <trkpt lat="49.6811" lon="1.50905">
        <ele>187</ele>
        <time>2015-10-14T10:11:02Z</time>
      </trkpt>
      <trkpt lat="49.6811" lon="1.50886">
        <ele>183</ele>
        <time>2015-10-14T10:11:20Z</time>
      </trkpt>
      <trkpt lat="49.68097" lon="1.50857">
        <ele>180</ele>
        <time>2015-10-14T10:11:39Z</time>
      </trkpt>
      <trkpt lat="49.68084" lon="1.50842">
        <ele>177</ele>
        <time>2015-10-14T10:11:53Z</time>
      </trkpt>
      <trkpt lat="49.68071" lon="1.50812">
        <ele>177</ele>
        <time>2015-10-14T10:12:13Z</time>
      </trkpt>
      <trkpt lat="49.6805" lon="1.5078">
        <ele>176</ele>
        <time>2015-10-14T10:12:33Z</time>
      </trkpt>
      <trkpt lat="49.68044" lon="1.5075">
        <ele>178</ele>
        <time>2015-10-14T10:12:44Z</time>
      </trkpt>
      <trkpt lat="49.68044" lon="1.5075">
        <ele>178</ele>
        <time>2015-10-14T10:12:52Z</time>
      </trkpt>
      <trkpt lat="49.68044" lon="1.5075">
        <ele>178</ele>
        <time>2015-10-14T10:12:54Z</time>
      </trkpt>
      <trkpt lat="49.68042" lon="1.50724">
        <ele>171</ele>
        <time>2015-10-14T10:13:05Z</time>
      </trkpt>
      <trkpt lat="49.68041" lon="1.50692">
        <ele>176</ele>
        <time>2015-10-14T10:13:20Z</time>
      </trkpt>
      <trkpt lat="49.68035" lon="1.50664">
        <ele>172</ele>
        <time>2015-10-14T10:13:35Z</time>
      </trkpt>
      <trkpt lat="49.68027" lon="1.50637">
        <ele>177</ele>
        <time>2015-10-14T10:13:49Z</time>
      </trkpt>
      <trkpt lat="49.68027" lon="1.50637">
        <ele>177</ele>
        <time>2015-10-14T10:13:56Z</time>
      </trkpt>
      <trkpt lat="49.68027" lon="1.50637">
        <ele>177</ele>
        <time>2015-10-14T10:13:57Z</time>
      </trkpt>
      <trkpt lat="49.68024" lon="1.50612">
        <ele>177</ele>
        <time>2015-10-14T10:14:04Z</time>
      </trkpt>
      <trkpt lat="49.68024" lon="1.50589">
        <ele>174</ele>
        <time>2015-10-14T10:14:16Z</time>
      </trkpt>
      <trkpt lat="49.68028" lon="1.50558">
        <ele>173</ele>
        <time>2015-10-14T10:14:30Z</time>
      </trkpt>
      <trkpt lat="49.68032" lon="1.50537">
        <ele>173</ele>
        <time>2015-10-14T10:14:43Z</time>
      </trkpt>
      <trkpt lat="49.68045" lon="1.50501">
        <ele>170</ele>
        <time>2015-10-14T10:15:10Z</time>
      </trkpt>
      <trkpt lat="49.68054" lon="1.50488">
        <ele>173</ele>
        <time>2015-10-14T10:15:20Z</time>
      </trkpt>
      <trkpt lat="49.6806" lon="1.50469">
        <ele>167</ele>
        <time>2015-10-14T10:15:32Z</time>
      </trkpt>
      <trkpt lat="49.68064" lon="1.50442">
        <ele>168</ele>
        <time>2015-10-14T10:15:42Z</time>
      </trkpt>
      <trkpt lat="49.68063" lon="1.50432">
        <ele>170</ele>
        <time>2015-10-14T10:15:45Z</time>
      </trkpt>
      <trkpt lat="49.68068" lon="1.50419">
        <ele>168</ele>
        <time>2015-10-14T10:15:54Z</time>
      </trkpt>
      <trkpt lat="49.68073" lon="1.50409">
        <ele>166</ele>
        <time>2015-10-14T10:16:02Z</time>
      </trkpt>
      <trkpt lat="49.68086" lon="1.50384">
        <ele>167</ele>
        <time>2015-10-14T10:16:21Z</time>
      </trkpt>
      <trkpt lat="49.68098" lon="1.50354">
        <ele>167</ele>
        <time>2015-10-14T10:16:39Z</time>
      </trkpt>
      <trkpt lat="49.68113" lon="1.50335">
        <ele>167</ele>
        <time>2015-10-14T10:16:56Z</time>
      </trkpt>
      <trkpt lat="49.68123" lon="1.50325">
        <ele>165</ele>
        <time>2015-10-14T10:17:06Z</time>
      </trkpt>
      <trkpt lat="49.68132" lon="1.50317">
        <ele>164</ele>
        <time>2015-10-14T10:17:14Z</time>
      </trkpt>
      <trkpt lat="49.68143" lon="1.50309">
        <ele>159</ele>
        <time>2015-10-14T10:17:27Z</time>
      </trkpt>
      <trkpt lat="49.68155" lon="1.50297">
        <ele>161</ele>
        <time>2015-10-14T10:17:40Z</time>
      </trkpt>
      <trkpt lat="49.68171" lon="1.50281">
        <ele>160</ele>
        <time>2015-10-14T10:17:57Z</time>
      </trkpt>
      <trkpt lat="49.68182" lon="1.50266">
        <ele>161</ele>
        <time>2015-10-14T10:18:10Z</time>
      </trkpt>
      <trkpt lat="49.68195" lon="1.50256">
        <ele>157</ele>
        <time>2015-10-14T10:18:24Z</time>
      </trkpt>
      <trkpt lat="49.68212" lon="1.50234">
        <ele>156</ele>
        <time>2015-10-14T10:18:40Z</time>
      </trkpt>
      <trkpt lat="49.68212" lon="1.50234">
        <ele>156</ele>
        <time>2015-10-14T10:18:45Z</time>
      </trkpt>
      <trkpt lat="49.68212" lon="1.50234">
        <ele>156</ele>
        <time>2015-10-14T10:18:47Z</time>
      </trkpt>
      <trkpt lat="49.68226" lon="1.50227">
        <ele>151</ele>
        <time>2015-10-14T10:18:59Z</time>
      </trkpt>
      <trkpt lat="49.68222" lon="1.50219">
        <ele>152</ele>
        <time>2015-10-14T10:19:23Z</time>
      </trkpt>
      <trkpt lat="49.68204" lon="1.50222">
        <ele>150</ele>
        <time>2015-10-14T10:19:41Z</time>
      </trkpt>
      <trkpt lat="49.68204" lon="1.50222">
        <ele>150</ele>
        <time>2015-10-14T10:19:48Z</time>
      </trkpt>
      <trkpt lat="49.68204" lon="1.50222">
        <ele>150</ele>
        <time>2015-10-14T10:19:49Z</time>
      </trkpt>
      <trkpt lat="49.68194" lon="1.50234">
        <ele>148</ele>
        <time>2015-10-14T10:20:00Z</time>
      </trkpt>
      <trkpt lat="49.6817" lon="1.50241">
        <ele>144</ele>
        <time>2015-10-14T10:20:15Z</time>
      </trkpt>
      <trkpt lat="49.6815" lon="1.50251">
        <ele>149</ele>
        <time>2015-10-14T10:20:25Z</time>
      </trkpt>
      <trkpt lat="49.68132" lon="1.50259">
        <ele>165</ele>
        <time>2015-10-14T10:20:38Z</time>
      </trkpt>
      <trkpt lat="49.68117" lon="1.50267">
        <ele>152</ele>
        <time>2015-10-14T10:20:52Z</time>
      </trkpt>
      <trkpt lat="49.68101" lon="1.50279">
        <ele>149</ele>
        <time>2015-10-14T10:21:08Z</time>
      </trkpt>
      <trkpt lat="49.68083" lon="1.50286">
        <ele>150</ele>
        <time>2015-10-14T10:21:21Z</time>
      </trkpt>
      <trkpt lat="49.68076" lon="1.50297">
        <ele>152</ele>
        <time>2015-10-14T10:21:30Z</time>
      </trkpt>
      <trkpt lat="49.68057" lon="1.50315">
        <ele>150</ele>
        <time>2015-10-14T10:21:44Z</time>
      </trkpt>
      <trkpt lat="49.68043" lon="1.50333">
        <ele>152</ele>
        <time>2015-10-14T10:21:59Z</time>
      </trkpt>
      <trkpt lat="49.68032" lon="1.50345">
        <ele>155</ele>
        <time>2015-10-14T10:22:11Z</time>
      </trkpt>
      <trkpt lat="49.68016" lon="1.50365">
        <ele>155</ele>
        <time>2015-10-14T10:22:26Z</time>
      </trkpt>
      <trkpt lat="49.68002" lon="1.5039">
        <ele>153</ele>
        <time>2015-10-14T10:22:41Z</time>
      </trkpt>
      <trkpt lat="49.67993" lon="1.50407">
        <ele>155</ele>
        <time>2015-10-14T10:22:55Z</time>
      </trkpt>
      <trkpt lat="49.67973" lon="1.5041">
        <ele>152</ele>
        <time>2015-10-14T10:23:13Z</time>
      </trkpt>
      <trkpt lat="49.67968" lon="1.50408">
        <ele>152</ele>
        <time>2015-10-14T10:23:17Z</time>
      </trkpt>
      <trkpt lat="49.67976" lon="1.5039">
        <ele>151</ele>
        <time>2015-10-14T10:23:33Z</time>
      </trkpt>
      <trkpt lat="49.67997" lon="1.50364">
        <ele>154</ele>
        <time>2015-10-14T10:23:54Z</time>
      </trkpt>
      <trkpt lat="49.68009" lon="1.5035">
        <ele>155</ele>
        <time>2015-10-14T10:24:09Z</time>
      </trkpt>
      <trkpt lat="49.68024" lon="1.50332">
        <ele>149</ele>
        <time>2015-10-14T10:24:25Z</time>
      </trkpt>
      <trkpt lat="49.68037" lon="1.50311">
        <ele>153</ele>
        <time>2015-10-14T10:24:39Z</time>
      </trkpt>
      <trkpt lat="49.68056" lon="1.5029">
        <ele>154</ele>
        <time>2015-10-14T10:24:54Z</time>
      </trkpt>
      <trkpt lat="49.68056" lon="1.5029">
        <ele>154</ele>
        <time>2015-10-14T10:25:01Z</time>
      </trkpt>
      <trkpt lat="49.68064" lon="1.50282">
        <ele>154</ele>
        <time>2015-10-14T10:25:04Z</time>
      </trkpt>
      <trkpt lat="49.68071" lon="1.50268">
        <ele>154</ele>
        <time>2015-10-14T10:25:10Z</time>
      </trkpt>
      <trkpt lat="49.68079" lon="1.50256">
        <ele>155</ele>
        <time>2015-10-14T10:25:17Z</time>
      </trkpt>
      <trkpt lat="49.68088" lon="1.50252">
        <ele>159</ele>
        <time>2015-10-14T10:25:28Z</time>
      </trkpt>
      <trkpt lat="49.68091" lon="1.50243">
        <ele>159</ele>
        <time>2015-10-14T10:25:31Z</time>
      </trkpt>
      <trkpt lat="49.68098" lon="1.50236">
        <ele>156</ele>
        <time>2015-10-14T10:25:42Z</time>
      </trkpt>
      <trkpt lat="49.6811" lon="1.50224">
        <ele>153</ele>
        <time>2015-10-14T10:25:53Z</time>
      </trkpt>
      <trkpt lat="49.68132" lon="1.5021">
        <ele>155</ele>
        <time>2015-10-14T10:26:12Z</time>
      </trkpt>
      <trkpt lat="49.68149" lon="1.50196">
        <ele>154</ele>
        <time>2015-10-14T10:26:26Z</time>
      </trkpt>
      <trkpt lat="49.68167" lon="1.50183">
        <ele>149</ele>
        <time>2015-10-14T10:26:44Z</time>
      </trkpt>
      <trkpt lat="49.68181" lon="1.50173">
        <ele>148</ele>
        <time>2015-10-14T10:26:55Z</time>
      </trkpt>
      <trkpt lat="49.68201" lon="1.50162">
        <ele>153</ele>
        <time>2015-10-14T10:27:11Z</time>
      </trkpt>
      <trkpt lat="49.68201" lon="1.50162">
        <ele>153</ele>
        <time>2015-10-14T10:27:16Z</time>
      </trkpt>
      <trkpt lat="49.6821" lon="1.50154">
        <ele>150</ele>
        <time>2015-10-14T10:27:22Z</time>
      </trkpt>
      <trkpt lat="49.68228" lon="1.50146">
        <ele>150</ele>
        <time>2015-10-14T10:27:38Z</time>
      </trkpt>
      <trkpt lat="49.68241" lon="1.5014">
        <ele>151</ele>
        <time>2015-10-14T10:27:51Z</time>
      </trkpt>
      <trkpt lat="49.68269" lon="1.50136">
        <ele>153</ele>
        <time>2015-10-14T10:28:10Z</time>
      </trkpt>
      <trkpt lat="49.68269" lon="1.50136">
        <ele>153</ele>
        <time>2015-10-14T10:28:16Z</time>
      </trkpt>
      <trkpt lat="49.68282" lon="1.50135">
        <ele>149</ele>
        <time>2015-10-14T10:28:25Z</time>
      </trkpt>
      <trkpt lat="49.68306" lon="1.50124">
        <ele>151</ele>
        <time>2015-10-14T10:28:41Z</time>
      </trkpt>
      <trkpt lat="49.68321" lon="1.50119">
        <ele>151</ele>
        <time>2015-10-14T10:28:55Z</time>
      </trkpt>
      <trkpt lat="49.68321" lon="1.50119">
        <ele>151</ele>
        <time>2015-10-14T10:29:02Z</time>
      </trkpt>
      <trkpt lat="49.68321" lon="1.50119">
        <ele>151</ele>
        <time>2015-10-14T10:29:03Z</time>
      </trkpt>
      <trkpt lat="49.68321" lon="1.50119">
        <ele>105.4</ele>
        <time>2015-10-14T10:29:03Z</time>
      </trkpt>
      <trkpt lat="49.68321" lon="1.50119">
        <ele>151</ele>
        <time>2015-10-14T10:29:03Z</time>
      </trkpt>
      <trkpt lat="49.68321" lon="1.50119">
        <ele>105.4</ele>
        <time>2015-10-14T10:29:03Z</time>
      </trkpt>
    </trkseg>
  </trk>
</gpx>